Observation data for Fort Chadbourne on 08/13/2020      Previous  Date  Next       Current Mesonet Observations  Soil Data  Daily Summary Page  Observations in Plain Language
KCH1 130500Z 17005KT 30/15 A2996 RMK A01 T03020150  RH  040%=      5-min Rain = 0
KCH1 130501Z 17004KT 30/15 A2996 RMK A01 T03010150  RH  040%=      5-min Rain = 0
KCH1 130502Z 17005KT 30/15 A2996 RMK A01 T03010150  RH  040%=      5-min Rain = 0
KCH1 130503Z 17005KT 30/15 A2996 RMK A01 T03010150  RH  040%=      5-min Rain = 0
KCH1 130504Z 16005KT 30/15 A2996 RMK A01 T03000150  RH  040%=      5-min Rain = 0
KCH1 130505Z 17005KT 30/15 A2996 RMK A01 T03000150  RH  040%=      5-min Rain = 0
KCH1 130506Z 16005KT 30/15 A2996 RMK A01 T03000150  RH  040%=      5-min Rain = 0
KCH1 130507Z 16005KT 30/15 A2996 RMK A01 T02990150  RH  040%=      5-min Rain = 0
KCH1 130508Z 16005KT 30/15 A2996 RMK A01 T02990150  RH  040%=      5-min Rain = 0
KCH1 130509Z 16004KT 30/15 A2996 RMK A01 T02990150  RH  040%=      5-min Rain = 0
KCH1 130510Z 16005KT 30/15 A2996 RMK A01 T02980150  RH  040%=      5-min Rain = 0
KCH1 130511Z 16005KT 30/15 A2996 RMK A01 T02980150  RH  040%=      5-min Rain = 0
KCH1 130512Z 16005KT 30/15 A2996 RMK A01 T02980150  RH  040%=      5-min Rain = 0
KCH1 130513Z 16005KT 30/15 A2996 RMK A01 T02980149  RH  040%=      5-min Rain = 0
KCH1 130514Z 16006KT 30/15 A2996 RMK A01 T02990150  RH  040%=      5-min Rain = 0
KCH1 130515Z 16005KT 30/15 A2996 RMK A01 T02990149  RH  040%=      5-min Rain = 0
KCH1 130516Z 16005KT 30/15 A2996 RMK A01 T02990150  RH  040%=      5-min Rain = 0
KCH1 130517Z 17005KT 30/15 A2996 RMK A01 T02980150  RH  040%=      5-min Rain = 0
KCH1 130518Z 16005KT 30/15 A2996 RMK A01 T02980150  RH  040%=      5-min Rain = 0
KCH1 130519Z 16005KT 30/15 A2996 RMK A01 T02980150  RH  041%=      5-min Rain = 0
KCH1 130520Z 16005KT 30/15 A2996 RMK A01 T02970149  RH  041%=      5-min Rain = 0
KCH1 130521Z 16005KT 30/15 A2996 RMK A01 T02970149  RH  041%=      5-min Rain = 0
KCH1 130522Z 16005KT 30/15 A2996 RMK A01 T02970150  RH  041%=      5-min Rain = 0
KCH1 130523Z 16005KT 30/15 A2996 RMK A01 T02970150  RH  041%=      5-min Rain = 0
KCH1 130524Z 16005KT 30/15 A2996 RMK A01 T02970149  RH  041%=      5-min Rain = 0
KCH1 130525Z 16004KT 30/15 A2996 RMK A01 T02970150  RH  041%=      5-min Rain = 0
KCH1 130526Z 16004KT 30/15 A2996 RMK A01 T02960150  RH  041%=      5-min Rain = 0
KCH1 130527Z 15004KT 30/15 A2996 RMK A01 T02960149  RH  041%=      5-min Rain = 0
KCH1 130528Z 16004KT 30/15 A2996 RMK A01 T02960149  RH  041%=      5-min Rain = 0
KCH1 130529Z 16004KT 30/15 A2996 RMK A01 T02950149  RH  041%=      5-min Rain = 0
KCH1 130530Z 16005KT 30/15 A2996 RMK A01 T02950150  RH  041%=      5-min Rain = 0
KCH1 130531Z 16005KT 29/15 A2996 RMK A01 T02940149  RH  041%=      5-min Rain = 0
KCH1 130532Z 16004KT 29/15 A2996 RMK A01 T02940149  RH  041%=      5-min Rain = 0
KCH1 130533Z 16005KT 29/15 A2996 RMK A01 T02940149  RH  041%=      5-min Rain = 0
KCH1 130534Z 17004KT 29/15 A2996 RMK A01 T02940149  RH  041%=      5-min Rain = 0
KCH1 130535Z 16005KT 29/15 A2996 RMK A01 T02940149  RH  041%=      5-min Rain = 0
KCH1 130536Z 16004KT 29/15 A2996 RMK A01 T02940149  RH  041%=      5-min Rain = 0
KCH1 130537Z 16005KT 29/15 A2996 RMK A01 T02930149  RH  041%=      5-min Rain = 0
KCH1 130538Z 17004KT 29/15 A2996 RMK A01 T02930149  RH  041%=      5-min Rain = 0
KCH1 130539Z 17005KT 29/15 A2996 RMK A01 T02930149  RH  041%=      5-min Rain = 0
KCH1 130540Z 17005KT 29/15 A2996 RMK A01 T02930149  RH  042%=      5-min Rain = 0
KCH1 130541Z 17004KT 29/15 A2996 RMK A01 T02920149  RH  042%=      5-min Rain = 0
KCH1 130542Z 17005KT 29/15 A2996 RMK A01 T02910149  RH  042%=      5-min Rain = 0
KCH1 130543Z 17005KT 29/15 A2996 RMK A01 T02910148  RH  042%=      5-min Rain = 0
KCH1 130544Z 17005KT 29/15 A2996 RMK A01 T02910149  RH  042%=      5-min Rain = 0
KCH1 130545Z 17005KT 29/15 A2996 RMK A01 T02900149  RH  042%=      5-min Rain = 0
KCH1 130546Z 16005KT 29/15 A2996 RMK A01 T02900149  RH  042%=      5-min Rain = 0
KCH1 130547Z 16005KT 29/15 A2996 RMK A01 T02900149  RH  042%=      5-min Rain = 0
KCH1 130548Z 16005KT 29/15 A2996 RMK A01 T02900149  RH  042%=      5-min Rain = 0
KCH1 130549Z 17006KT 29/15 A2996 RMK A01 T02900149  RH  042%=      5-min Rain = 0
KCH1 130550Z 17006KT 29/15 A2996 RMK A01 T02890148  RH  042%=      5-min Rain = 0
KCH1 130551Z 17005KT 29/15 A2996 RMK A01 T02890148  RH  042%=      5-min Rain = 0
KCH1 130552Z 17006KT 29/15 A2996 RMK A01 T02890148  RH  042%=      5-min Rain = 0
KCH1 130553Z 17005KT 29/15 A2996 RMK A01 T02880148  RH  042%=      5-min Rain = 0
KCH1 130554Z 17005KT 29/15 A2996 RMK A01 T02890148  RH  042%=      5-min Rain = 0
KCH1 130555Z 17005KT 29/15 A2996 RMK A01 T02880148  RH  042%=      5-min Rain = 0
KCH1 130556Z 17005KT 29/15 A2996 RMK A01 T02880148  RH  043%=      5-min Rain = 0
KCH1 130557Z 17005KT 29/15 A2996 RMK A01 T02880148  RH  043%=      5-min Rain = 0
KCH1 130558Z 17004KT 29/15 A2996 RMK A01 T02880148  RH  043%=      5-min Rain = 0
KCH1 130559Z 17004KT 29/15 A2996 RMK A01 T02880148  RH  043%=      5-min Rain = 0
KCH1 130600Z 17005KT 29/15 A2996 RMK A01 T02880148  RH  043%=      5-min Rain = 0
KCH1 130601Z 16004KT 29/15 A2996 RMK A01 T02880148  RH  043%=      5-min Rain = 0
KCH1 130602Z 17004KT 29/15 A2996 RMK A01 T02870148  RH  043%=      5-min Rain = 0
KCH1 130603Z 17004KT 29/15 A2996 RMK A01 T02870148  RH  043%=      5-min Rain = 0
KCH1 130604Z 17004KT 29/15 A2996 RMK A01 T02870148  RH  043%=      5-min Rain = 0
KCH1 130605Z 16004KT 29/15 A2996 RMK A01 T02860148  RH  043%=      5-min Rain = 0
KCH1 130606Z 17004KT 29/15 A2996 RMK A01 T02860148  RH  043%=      5-min Rain = 0
KCH1 130607Z 17004KT 29/15 A2996 RMK A01 T02850148  RH  043%=      5-min Rain = 0
KCH1 130608Z 17004KT 29/15 A2996 RMK A01 T02850148  RH  043%=      5-min Rain = 0
KCH1 130609Z 17004KT 29/15 A2996 RMK A01 T02850149  RH  043%=      5-min Rain = 0
KCH1 130610Z 18004KT 29/15 A2996 RMK A01 T02850149  RH  043%=      5-min Rain = 0
KCH1 130611Z 18004KT 29/15 A2996 RMK A01 T02850149  RH  043%=      5-min Rain = 0
KCH1 130612Z 19004KT 29/15 A2996 RMK A01 T02850149  RH  043%=      5-min Rain = 0
KCH1 130613Z 18003KT 29/15 A2996 RMK A01 T02850149  RH  043%=      5-min Rain = 0
KCH1 130614Z 18004KT 29/15 A2996 RMK A01 T02850149  RH  044%=      5-min Rain = 0
KCH1 130615Z 18005KT 28/15 A2996 RMK A01 T02840149  RH  044%=      5-min Rain = 0
KCH1 130616Z 19005KT 28/15 A2996 RMK A01 T02840149  RH  044%=      5-min Rain = 0
KCH1 130617Z 19005KT 28/15 A2996 RMK A01 T02840149  RH  044%=      5-min Rain = 0
KCH1 130618Z 19005KT 28/15 A2996 RMK A01 T02840149  RH  044%=      5-min Rain = 0
KCH1 130619Z 19005KT 28/15 A2996 RMK A01 T02840149  RH  044%=      5-min Rain = 0
KCH1 130620Z 19005KT 28/15 A2996 RMK A01 T02840149  RH  044%=      5-min Rain = 0
KCH1 130621Z 19004KT 28/15 A2996 RMK A01 T02840149  RH  044%=      5-min Rain = 0
KCH1 130622Z 19005KT 28/15 A2996 RMK A01 T02840149  RH  044%=      5-min Rain = 0
KCH1 130623Z 19005KT 28/15 A2996 RMK A01 T02840150  RH  044%=      5-min Rain = 0
KCH1 130624Z 19006KT 28/15 A2996 RMK A01 T02840150  RH  044%=      5-min Rain = 0
KCH1 130625Z 19005KT 29/15 A2996 RMK A01 T02850150  RH  044%=      5-min Rain = 0
KCH1 130626Z 19004KT 29/15 A2996 RMK A01 T02860150  RH  044%=      5-min Rain = 0
KCH1 130627Z 19004KT 29/15 A2996 RMK A01 T02860150  RH  044%=      5-min Rain = 0
KCH1 130628Z 19005KT 29/15 A2996 RMK A01 T02870151  RH  043%=      5-min Rain = 0
KCH1 130629Z 19005KT 29/15 A2996 RMK A01 T02880150  RH  043%=      5-min Rain = 0
KCH1 130630Z 19005KT 29/15 A2996 RMK A01 T02880150  RH  043%=      5-min Rain = 0
KCH1 130631Z 19004KT 29/15 A2996 RMK A01 T02880151  RH  043%=      5-min Rain = 0
KCH1 130632Z 18004KT 29/15 A2996 RMK A01 T02880150  RH  043%=      5-min Rain = 0
KCH1 130633Z 18004KT 29/15 A2996 RMK A01 T02880151  RH  043%=      5-min Rain = 0
KCH1 130634Z 18005KT 29/15 A2996 RMK A01 T02880151  RH  043%=      5-min Rain = 0
KCH1 130635Z 18004KT 29/15 A2996 RMK A01 T02880151  RH  043%=      5-min Rain = 0
KCH1 130636Z 19003KT 29/15 A2996 RMK A01 T02880151  RH  043%=      5-min Rain = 0
KCH1 130637Z 19003KT 29/15 A2996 RMK A01 T02880151  RH  043%=      5-min Rain = 0
KCH1 130638Z 18004KT 29/15 A2996 RMK A01 T02880151  RH  043%=      5-min Rain = 0
KCH1 130639Z 18003KT 29/15 A2996 RMK A01 T02880151  RH  043%=      5-min Rain = 0
KCH1 130640Z 18004KT 29/15 A2996 RMK A01 T02880151  RH  043%=      5-min Rain = 0
KCH1 130641Z 19004KT 29/15 A2996 RMK A01 T02880151  RH  043%=      5-min Rain = 0
KCH1 130642Z 19003KT 29/15 A2996 RMK A01 T02880151  RH  043%=      5-min Rain = 0
KCH1 130643Z 19003KT 29/15 A2996 RMK A01 T02870151  RH  043%=      5-min Rain = 0
KCH1 130644Z 19003KT 29/15 A2996 RMK A01 T02870151  RH  043%=      5-min Rain = 0
KCH1 130645Z 19003KT 29/15 A2996 RMK A01 T02870151  RH  044%=      5-min Rain = 0
KCH1 130646Z 18003KT 29/15 A2996 RMK A01 T02870151  RH  044%=      5-min Rain = 0
KCH1 130647Z 18003KT 29/15 A2996 RMK A01 T02870151  RH  044%=      5-min Rain = 0
KCH1 130648Z 18003KT 29/15 A2996 RMK A01 T02870151  RH  044%=      5-min Rain = 0
KCH1 130649Z 18002KT 29/15 A2996 RMK A01 T02860151  RH  044%=      5-min Rain = 0
KCH1 130650Z 18002KT 29/15 A2996 RMK A01 T02860151  RH  044%=      5-min Rain = 0
KCH1 130651Z 18002KT 29/15 A2996 RMK A01 T02850151  RH  044%=      5-min Rain = 0
KCH1 130652Z 17002KT 28/15 A2996 RMK A01 T02830150  RH  044%=      5-min Rain = 0
KCH1 130653Z 17002KT 28/15 A2996 RMK A01 T02810150  RH  045%=      5-min Rain = 0
KCH1 130654Z 15002KT 28/15 A2996 RMK A01 T02790150  RH  045%=      5-min Rain = 0
KCH1 130655Z 13002KT 28/15 A2997 RMK A01 T02770150  RH  046%=      5-min Rain = 0
KCH1 130656Z 13002KT 28/15 A2997 RMK A01 T02750149  RH  046%=      5-min Rain = 0
KCH1 130657Z 13002KT 27/15 A2997 RMK A01 T02730149  RH  047%=      5-min Rain = 0
KCH1 130658Z 13002KT 27/15 A2997 RMK A01 T02710149  RH  047%=      5-min Rain = 0
KCH1 130659Z 13003KT 27/15 A2996 RMK A01 T02690149  RH  048%=      5-min Rain = 0
KCH1 130700Z 13003KT 27/15 A2996 RMK A01 T02680149  RH  048%=      5-min Rain = 0
KCH1 130701Z 14003KT 27/15 A2996 RMK A01 T02670149  RH  048%=      5-min Rain = 0
KCH1 130702Z 14003KT 27/15 A2996 RMK A01 T02670149  RH  048%=      5-min Rain = 0
KCH1 130703Z 14003KT 27/15 A2996 RMK A01 T02670149  RH  048%=      5-min Rain = 0
KCH1 130704Z 14003KT 27/15 A2996 RMK A01 T02670149  RH  048%=      5-min Rain = 0
KCH1 130705Z 14003KT 27/15 A2996 RMK A01 T02670149  RH  048%=      5-min Rain = 0
KCH1 130706Z 15003KT 27/15 A2996 RMK A01 T02670149  RH  048%=      5-min Rain = 0
KCH1 130707Z 15003KT 27/15 A2996 RMK A01 T02670149  RH  048%=      5-min Rain = 0
KCH1 130708Z 15003KT 27/15 A2996 RMK A01 T02670149  RH  048%=      5-min Rain = 0
KCH1 130709Z 15003KT 27/15 A2996 RMK A01 T02670149  RH  048%=      5-min Rain = 0
KCH1 130710Z 15003KT 27/15 A2996 RMK A01 T02670149  RH  048%=      5-min Rain = 0
KCH1 130711Z 15003KT 27/15 A2996 RMK A01 T02670149  RH  048%=      5-min Rain = 0
KCH1 130712Z 15003KT 27/15 A2996 RMK A01 T02670149  RH  048%=      5-min Rain = 0
KCH1 130713Z 15003KT 27/15 A2996 RMK A01 T02670149  RH  048%=      5-min Rain = 0
KCH1 130714Z 14003KT 27/15 A2996 RMK A01 T02670150  RH  048%=      5-min Rain = 0
KCH1 130715Z 14003KT 27/15 A2996 RMK A01 T02660149  RH  049%=      5-min Rain = 0
KCH1 130716Z 14003KT 27/15 A2996 RMK A01 T02650149  RH  049%=      5-min Rain = 0
KCH1 130717Z 14003KT 26/15 A2996 RMK A01 T02630149  RH  050%=      5-min Rain = 0
KCH1 130718Z 15003KT 26/15 A2996 RMK A01 T02620150  RH  050%=      5-min Rain = 0
KCH1 130719Z 14002KT 26/15 A2996 RMK A01 T02610149  RH  050%=      5-min Rain = 0
KCH1 130720Z 12002KT 26/15 A2996 RMK A01 T02600149  RH  050%=      5-min Rain = 0
KCH1 130721Z 11001KT 26/15 A2996 RMK A01 T02600149  RH  050%=      5-min Rain = 0
KCH1 130722Z 14002KT 26/15 A2996 RMK A01 T02600149  RH  050%=      5-min Rain = 0
KCH1 130723Z 15003KT 26/15 A2996 RMK A01 T02600149  RH  051%=      5-min Rain = 0
KCH1 130724Z 14003KT 26/15 A2996 RMK A01 T02600149  RH  050%=      5-min Rain = 0
KCH1 130725Z 14003KT 26/15 A2996 RMK A01 T02610149  RH  050%=      5-min Rain = 0
KCH1 130726Z 14003KT 26/15 A2996 RMK A01 T02610150  RH  050%=      5-min Rain = 0
KCH1 130727Z 13003KT 26/15 A2996 RMK A01 T02610149  RH  050%=      5-min Rain = 0
KCH1 130728Z 13003KT 26/15 A2996 RMK A01 T02610150  RH  050%=      5-min Rain = 0
KCH1 130729Z 13003KT 26/15 A2996 RMK A01 T02600150  RH  050%=      5-min Rain = 0
KCH1 130730Z 13002KT 26/15 A2996 RMK A01 T02600149  RH  051%=      5-min Rain = 0
KCH1 130731Z 13002KT 26/15 A2996 RMK A01 T02590150  RH  051%=      5-min Rain = 0
KCH1 130732Z 13002KT 26/15 A2996 RMK A01 T02590149  RH  051%=      5-min Rain = 0
KCH1 130733Z 14002KT 26/15 A2996 RMK A01 T02590149  RH  051%=      5-min Rain = 0
KCH1 130734Z 15002KT 26/15 A2996 RMK A01 T02590149  RH  051%=      5-min Rain = 0
KCH1 130735Z 15002KT 26/15 A2996 RMK A01 T02600150  RH  051%=      5-min Rain = 0
KCH1 130736Z 14002KT 26/15 A2996 RMK A01 T02610150  RH  050%=      5-min Rain = 0
KCH1 130737Z 15002KT 26/15 A2996 RMK A01 T02610150  RH  050%=      5-min Rain = 0
KCH1 130738Z 14002KT 26/15 A2996 RMK A01 T02620150  RH  050%=      5-min Rain = 0
KCH1 130739Z 14003KT 26/15 A2996 RMK A01 T02620150  RH  050%=      5-min Rain = 0
KCH1 130740Z 14003KT 26/15 A2996 RMK A01 T02620150  RH  050%=      5-min Rain = 0
KCH1 130741Z 14002KT 26/15 A2996 RMK A01 T02620150  RH  050%=      5-min Rain = 0
KCH1 130742Z 14002KT 26/15 A2996 RMK A01 T02620150  RH  050%=      5-min Rain = 0
KCH1 130743Z 13003KT 26/15 A2996 RMK A01 T02620150  RH  050%=      5-min Rain = 0
KCH1 130744Z 13002KT 26/15 A2996 RMK A01 T02620150  RH  050%=      5-min Rain = 0
KCH1 130745Z 14002KT 26/15 A2996 RMK A01 T02620150  RH  050%=      5-min Rain = 0
KCH1 130746Z 15003KT 26/15 A2996 RMK A01 T02610150  RH  050%=      5-min Rain = 0
KCH1 130747Z 14003KT 26/15 A2996 RMK A01 T02610150  RH  050%=      5-min Rain = 0
KCH1 130748Z 15003KT 26/15 A2996 RMK A01 T02600150  RH  051%=      5-min Rain = 0
KCH1 130749Z 15003KT 26/15 A2996 RMK A01 T02600150  RH  051%=      5-min Rain = 0
KCH1 130750Z 15003KT 26/15 A2996 RMK A01 T02590150  RH  051%=      5-min Rain = 0
KCH1 130751Z 15003KT 26/15 A2996 RMK A01 T02600150  RH  051%=      5-min Rain = 0
KCH1 130752Z 15003KT 26/15 A2996 RMK A01 T02590150  RH  051%=      5-min Rain = 0
KCH1 130753Z 15003KT 26/15 A2996 RMK A01 T02590150  RH  051%=      5-min Rain = 0
KCH1 130754Z 14003KT 26/15 A2996 RMK A01 T02590150  RH  051%=      5-min Rain = 0
KCH1 130755Z 14003KT 26/15 A2996 RMK A01 T02600150  RH  051%=      5-min Rain = 0
KCH1 130756Z 14003KT 26/15 A2996 RMK A01 T02600150  RH  051%=      5-min Rain = 0
KCH1 130757Z 14003KT 26/15 A2996 RMK A01 T02600150  RH  051%=      5-min Rain = 0
KCH1 130758Z 14003KT 26/15 A2996 RMK A01 T02600150  RH  051%=      5-min Rain = 0
KCH1 130759Z 14003KT 26/15 A2996 RMK A01 T02590150  RH  051%=      5-min Rain = 0
KCH1 130800Z 14003KT 26/15 A2996 RMK A01 T02580150  RH  051%=      5-min Rain = 0
KCH1 130801Z 14003KT 26/15 A2996 RMK A01 T02570150  RH  051%=      5-min Rain = 0
KCH1 130802Z 14003KT 26/15 A2996 RMK A01 T02570150  RH  052%=      5-min Rain = 0
KCH1 130803Z 15002KT 26/15 A2996 RMK A01 T02570150  RH  052%=      5-min Rain = 0
KCH1 130804Z 15002KT 26/15 A2996 RMK A01 T02570150  RH  052%=      5-min Rain = 0
KCH1 130805Z 16002KT 26/15 A2996 RMK A01 T02570150  RH  052%=      5-min Rain = 0
KCH1 130806Z 16001KT 26/15 A2996 RMK A01 T02570150  RH  052%=      5-min Rain = 0
KCH1 130807Z 16002KT 26/15 A2996 RMK A01 T02570150  RH  052%=      5-min Rain = 0
KCH1 130808Z 16003KT 26/15 A2996 RMK A01 T02570150  RH  052%=      5-min Rain = 0
KCH1 130809Z 17003KT 26/15 A2996 RMK A01 T02570151  RH  052%=      5-min Rain = 0
KCH1 130810Z 17003KT 26/15 A2996 RMK A01 T02580151  RH  052%=      5-min Rain = 0
KCH1 130811Z 17002KT 26/15 A2996 RMK A01 T02590151  RH  051%=      5-min Rain = 0
KCH1 130812Z 17002KT 26/15 A2996 RMK A01 T02600152  RH  051%=      5-min Rain = 0
KCH1 130813Z 16002KT 26/15 A2996 RMK A01 T02600152  RH  051%=      5-min Rain = 0
KCH1 130814Z 15001KT 26/15 A2996 RMK A01 T02610152  RH  051%=      5-min Rain = 0
KCH1 130815Z 17001KT 26/15 A2996 RMK A01 T02610152  RH  051%=      5-min Rain = 0
KCH1 130816Z 18001KT 26/15 A2996 RMK A01 T02610152  RH  051%=      5-min Rain = 0
KCH1 130817Z 18001KT 26/15 A2996 RMK A01 T02600152  RH  051%=      5-min Rain = 0
KCH1 130818Z 16002KT 26/15 A2996 RMK A01 T02600152  RH  051%=      5-min Rain = 0
KCH1 130819Z 15002KT 26/15 A2996 RMK A01 T02600152  RH  051%=      5-min Rain = 0
KCH1 130820Z 14002KT 26/15 A2996 RMK A01 T02600152  RH  051%=      5-min Rain = 0
KCH1 130821Z 14002KT 26/15 A2996 RMK A01 T02600152  RH  051%=      5-min Rain = 0
KCH1 130822Z 14002KT 26/15 A2996 RMK A01 T02590151  RH  051%=      5-min Rain = 0
KCH1 130823Z 14002KT 26/15 A2996 RMK A01 T02570151  RH  052%=      5-min Rain = 0
KCH1 130824Z 13002KT 26/15 A2996 RMK A01 T02570151  RH  052%=      5-min Rain = 0
KCH1 130825Z 14002KT 26/15 A2996 RMK A01 T02560151  RH  052%=      5-min Rain = 0
KCH1 130826Z 13001KT 25/15 A2996 RMK A01 T02540150  RH  053%=      5-min Rain = 0
KCH1 130827Z 13001KT 25/15 A2996 RMK A01 T02520149  RH  053%=      5-min Rain = 0
KCH1 130828Z 13001KT 25/15 A2996 RMK A01 T02500149  RH  054%=      5-min Rain = 0
KCH1 130829Z 15001KT 25/15 A2996 RMK A01 T02490151  RH  054%=      5-min Rain = 0
KCH1 130830Z 15002KT 25/15 A2996 RMK A01 T02490151  RH  054%=      5-min Rain = 0
KCH1 130831Z 15002KT 25/15 A2996 RMK A01 T02500151  RH  054%=      5-min Rain = 0
KCH1 130832Z 14001KT 25/15 A2996 RMK A01 T02500151  RH  054%=      5-min Rain = 0
KCH1 130833Z 15001KT 25/15 A2996 RMK A01 T02510152  RH  054%=      5-min Rain = 0
KCH1 130834Z 15001KT 25/15 A2996 RMK A01 T02510152  RH  054%=      5-min Rain = 0
KCH1 130835Z 15002KT 25/15 A2996 RMK A01 T02520153  RH  054%=      5-min Rain = 0
KCH1 130836Z 16002KT 25/15 A2996 RMK A01 T02530153  RH  054%=      5-min Rain = 0
KCH1 130837Z 15001KT 25/15 A2996 RMK A01 T02540153  RH  054%=      5-min Rain = 0
KCH1 130838Z 14000KT 25/15 A2996 RMK A01 T02540153  RH  053%=      5-min Rain = 0
KCH1 130839Z 16000KT 26/15 A2996 RMK A01 T02550154  RH  053%=      5-min Rain = 0
KCH1 130840Z 00000KT 26/15 A2996 RMK A01 T02550153  RH  053%=      5-min Rain = 0
KCH1 130841Z 15000KT 26/15 A2996 RMK A01 T02560154  RH  053%=      5-min Rain = 0
KCH1 130842Z 13000KT 26/15 A2996 RMK A01 T02560154  RH  053%=      5-min Rain = 0
KCH1 130843Z 00000KT 26/15 A2996 RMK A01 T02560154  RH  053%=      5-min Rain = 0
KCH1 130844Z 07000KT 26/15 A2996 RMK A01 T02550153  RH  053%=      5-min Rain = 0
KCH1 130845Z 07000KT 25/15 A2996 RMK A01 T02540153  RH  054%=      5-min Rain = 0
KCH1 130846Z 00000KT 25/15 A2996 RMK A01 T02540154  RH  054%=      5-min Rain = 0
KCH1 130847Z 00000KT 25/15 A2996 RMK A01 T02540154  RH  054%=      5-min Rain = 0
KCH1 130848Z 00000KT 26/15 A2996 RMK A01 T02550154  RH  054%=      5-min Rain = 0
KCH1 130849Z 00000KT 26/15 A2996 RMK A01 T02550154  RH  053%=      5-min Rain = 0
KCH1 130850Z 00000KT 26/15 A2996 RMK A01 T02550154  RH  053%=      5-min Rain = 0
KCH1 130851Z 26000KT 25/15 A2996 RMK A01 T02540154  RH  054%=      5-min Rain = 0
KCH1 130852Z 00000KT 25/15 A2996 RMK A01 T02540153  RH  054%=      5-min Rain = 0
KCH1 130853Z 00000KT 25/15 A2996 RMK A01 T02520152  RH  054%=      5-min Rain = 0
KCH1 130854Z 21000KT 25/15 A2996 RMK A01 T02500152  RH  054%=      5-min Rain = 0
KCH1 130855Z 17000KT 25/15 A2996 RMK A01 T02490154  RH  055%=      5-min Rain = 0
KCH1 130856Z 00000KT 25/15 A2996 RMK A01 T02500154  RH  055%=      5-min Rain = 0
KCH1 130857Z 18000KT 25/16 A2996 RMK A01 T02520155  RH  055%=      5-min Rain = 0
KCH1 130858Z 22002KT 25/16 A2996 RMK A01 T02530155  RH  055%=      5-min Rain = 0
KCH1 130859Z 20001KT 25/16 A2996 RMK A01 T02520155  RH  055%=      5-min Rain = 0
KCH1 130900Z 21000KT 25/15 A2996 RMK A01 T02530154  RH  054%=      5-min Rain = 0
KCH1 130901Z 20002KT 25/16 A2996 RMK A01 T02520157  RH  056%=      5-min Rain = 0
KCH1 130902Z 20003KT 25/16 A2996 RMK A01 T02530159  RH  056%=      5-min Rain = 0
KCH1 130903Z 19004KT 26/16 A2996 RMK A01 T02550160  RH  056%=      5-min Rain = 0
KCH1 130904Z 20003KT 26/16 A2996 RMK A01 T02580161  RH  055%=      5-min Rain = 0
KCH1 130905Z 19004KT 26/16 A2996 RMK A01 T02590159  RH  054%=      5-min Rain = 0
KCH1 130906Z 19005KT 26/16 A2996 RMK A01 T02590159  RH  054%=      5-min Rain = 0
KCH1 130907Z 19005KT 26/16 A2996 RMK A01 T02600161  RH  055%=      5-min Rain = 0
KCH1 130908Z 19005KT 26/16 A2996 RMK A01 T02610163  RH  055%=      5-min Rain = 0
KCH1 130909Z 20005KT 26/16 A2996 RMK A01 T02630164  RH  054%=      5-min Rain = 0
KCH1 130910Z 20004KT 26/17 A2996 RMK A01 T02640166  RH  055%=      5-min Rain = 0
KCH1 130911Z 20005KT 27/17 A2996 RMK A01 T02650166  RH  055%=      5-min Rain = 0
KCH1 130912Z 20006KT 27/17 A2996 RMK A01 T02670168  RH  055%=      5-min Rain = 0
KCH1 130913Z 20005KT 27/17 A2996 RMK A01 T02690169  RH  054%=      5-min Rain = 0
KCH1 130914Z 21005KT 27/17 A2996 RMK A01 T02710170  RH  054%=      5-min Rain = 0
KCH1 130915Z 20005KT 27/17 A2996 RMK A01 T02730170  RH  053%=      5-min Rain = 0
KCH1 130916Z 21004KT 27/17 A2996 RMK A01 T02740171  RH  053%=      5-min Rain = 0
KCH1 130917Z 20004KT 27/17 A2996 RMK A01 T02740171  RH  053%=      5-min Rain = 0
KCH1 130918Z 21004KT 28/17 A2996 RMK A01 T02750171  RH  053%=      5-min Rain = 0
KCH1 130919Z 20003KT 28/17 A2996 RMK A01 T02750171  RH  053%=      5-min Rain = 0
KCH1 130920Z 21004KT 28/17 A2996 RMK A01 T02750171  RH  053%=      5-min Rain = 0
KCH1 130921Z 20004KT 28/17 A2996 RMK A01 T02760172  RH  053%=      5-min Rain = 0
KCH1 130922Z 20004KT 28/17 A2996 RMK A01 T02760172  RH  053%=      5-min Rain = 0
KCH1 130923Z 20004KT 28/17 A2996 RMK A01 T02760172  RH  053%=      5-min Rain = 0
KCH1 130924Z 20004KT 28/17 A2996 RMK A01 T02760172  RH  053%=      5-min Rain = 0
KCH1 130925Z 21003KT 28/17 A2996 RMK A01 T02770172  RH  053%=      5-min Rain = 0
KCH1 130926Z 20003KT 28/17 A2996 RMK A01 T02770173  RH  053%=      5-min Rain = 0
KCH1 130927Z 20004KT 28/17 A2996 RMK A01 T02770173  RH  053%=      5-min Rain = 0
KCH1 130928Z 21004KT 28/17 A2996 RMK A01 T02770173  RH  053%=      5-min Rain = 0
KCH1 130929Z 20005KT 28/17 A2996 RMK A01 T02760173  RH  053%=      5-min Rain = 0
KCH1 130930Z 20004KT 28/17 A2996 RMK A01 T02760173  RH  053%=      5-min Rain = 0
KCH1 130931Z 20004KT 28/17 A2996 RMK A01 T02770173  RH  053%=      5-min Rain = 0
KCH1 130932Z 20007KT 28/17 A2996 RMK A01 T02770174  RH  053%=      5-min Rain = 0
KCH1 130933Z 21006KT 28/17 A2996 RMK A01 T02770173  RH  053%=      5-min Rain = 0
KCH1 130934Z 20006KT 28/17 A2996 RMK A01 T02780173  RH  053%=      5-min Rain = 0
KCH1 130935Z 21006KT 28/17 A2996 RMK A01 T02790174  RH  053%=      5-min Rain = 0
KCH1 130936Z 21006KT 28/17 A2996 RMK A01 T02800174  RH  052%=      5-min Rain = 0
KCH1 130937Z 21005KT 28/17 A2996 RMK A01 T02810174  RH  052%=      5-min Rain = 0
KCH1 130938Z 21006KT 28/17 A2996 RMK A01 T02810174  RH  052%=      5-min Rain = 0
KCH1 130939Z 21004KT 28/17 A2996 RMK A01 T02810174  RH  052%=      5-min Rain = 0
KCH1 130940Z 22004KT 28/17 A2996 RMK A01 T02820174  RH  052%=      5-min Rain = 0
KCH1 130941Z 22004KT 28/17 A2996 RMK A01 T02820174  RH  052%=      5-min Rain = 0
KCH1 130942Z 22006KT 28/17 A2996 RMK A01 T02810174  RH  052%=      5-min Rain = 0
KCH1 130943Z 23004KT 28/17 A2996 RMK A01 T02810174  RH  052%=      5-min Rain = 0
KCH1 130944Z 22002KT 28/17 A2996 RMK A01 T02810174  RH  052%=      5-min Rain = 0
KCH1 130945Z 23004KT 28/17 A2996 RMK A01 T02810174  RH  052%=      5-min Rain = 0
KCH1 130946Z 22005G10KT 28/17 A2996 RMK A01 T02810174  RH  052%=      5-min Rain = 0
KCH1 130947Z 22003KT 28/17 A2996 RMK A01 T02810174  RH  052%=      5-min Rain = 0
KCH1 130948Z 22004KT 28/17 A2997 RMK A01 T02810174  RH  052%=      5-min Rain = 0
KCH1 130949Z 21005KT 28/17 A2997 RMK A01 T02810174  RH  052%=      5-min Rain = 0
KCH1 130950Z 22004KT 28/17 A2997 RMK A01 T02810174  RH  052%=      5-min Rain = 0
KCH1 130951Z 22005KT 28/17 A2997 RMK A01 T02810174  RH  052%=      5-min Rain = 0
KCH1 130952Z 22005KT 28/17 A2997 RMK A01 T02800173  RH  052%=      5-min Rain = 0
KCH1 130953Z 22006KT 28/17 A2997 RMK A01 T02800173  RH  052%=      5-min Rain = 0
KCH1 130954Z 22004KT 28/17 A2997 RMK A01 T02800174  RH  052%=      5-min Rain = 0
KCH1 130955Z 21006KT 28/17 A2997 RMK A01 T02800174  RH  052%=      5-min Rain = 0
KCH1 130956Z 21006KT 28/17 A2997 RMK A01 T02800174  RH  053%=      5-min Rain = 0
KCH1 130957Z 21004KT 28/17 A2997 RMK A01 T02800174  RH  053%=      5-min Rain = 0
KCH1 130958Z 21005KT 28/17 A2997 RMK A01 T02800174  RH  053%=      5-min Rain = 0
KCH1 130959Z 22006KT 28/17 A2996 RMK A01 T02800174  RH  053%=      5-min Rain = 0
KCH1 131000Z 20005KT 28/17 A2996 RMK A01 T02800174  RH  053%=      5-min Rain = 0
KCH1 131001Z 21006KT 28/18 A2996 RMK A01 T02800175  RH  053%=      5-min Rain = 0
KCH1 131002Z 20008KT 28/17 A2996 RMK A01 T02800174  RH  053%=      5-min Rain = 0
KCH1 131003Z 20006KT 28/17 A2996 RMK A01 T02800174  RH  053%=      5-min Rain = 0
KCH1 131004Z 20006KT 28/18 A2996 RMK A01 T02800175  RH  053%=      5-min Rain = 0
KCH1 131005Z 20006KT 28/18 A2996 RMK A01 T02810175  RH  053%=      5-min Rain = 0
KCH1 131006Z 20007KT 28/18 A2996 RMK A01 T02810175  RH  053%=      5-min Rain = 0
KCH1 131007Z 21006KT 28/18 A2996 RMK A01 T02800175  RH  053%=      5-min Rain = 0
KCH1 131008Z 20005KT 28/18 A2996 RMK A01 T02810175  RH  053%=      5-min Rain = 0
KCH1 131009Z 20005KT 28/18 A2996 RMK A01 T02800175  RH  053%=      5-min Rain = 0
KCH1 131010Z 20005KT 28/18 A2996 RMK A01 T02800175  RH  053%=      5-min Rain = 0
KCH1 131011Z 19004KT 28/18 A2996 RMK A01 T02790175  RH  053%=      5-min Rain = 0
KCH1 131012Z 21005KT 28/18 A2996 RMK A01 T02790175  RH  053%=      5-min Rain = 0
KCH1 131013Z 21005KT 28/18 A2996 RMK A01 T02790176  RH  053%=      5-min Rain = 0
KCH1 131014Z 19005KT 28/18 A2996 RMK A01 T02790176  RH  054%=      5-min Rain = 0
KCH1 131015Z 21005KT 28/18 A2996 RMK A01 T02790176  RH  053%=      5-min Rain = 0
KCH1 131016Z 21006KT 28/18 A2996 RMK A01 T02790176  RH  053%=      5-min Rain = 0
KCH1 131017Z 21005KT 28/18 A2996 RMK A01 T02790176  RH  053%=      5-min Rain = 0
KCH1 131018Z 21005KT 28/18 A2996 RMK A01 T02790176  RH  053%=      5-min Rain = 0
KCH1 131019Z 20007KT 28/18 A2996 RMK A01 T02790176  RH  054%=      5-min Rain = 0
KCH1 131020Z 21005KT 28/18 A2997 RMK A01 T02790176  RH  054%=      5-min Rain = 0
KCH1 131021Z 20004KT 28/18 A2997 RMK A01 T02790176  RH  054%=      5-min Rain = 0
KCH1 131022Z 20006KT 28/18 A2997 RMK A01 T02790176  RH  054%=      5-min Rain = 0
KCH1 131023Z 20005KT 28/18 A2997 RMK A01 T02790177  RH  054%=      5-min Rain = 0
KCH1 131024Z 21006KT 28/18 A2997 RMK A01 T02790177  RH  054%=      5-min Rain = 0
KCH1 131025Z 20007KT 28/18 A2997 RMK A01 T02790177  RH  054%=      5-min Rain = 0
KCH1 131026Z 20007KT 28/18 A2997 RMK A01 T02790177  RH  054%=      5-min Rain = 0
KCH1 131027Z 20007KT 28/18 A2997 RMK A01 T02790177  RH  054%=      5-min Rain = 0
KCH1 131028Z 21006KT 28/18 A2997 RMK A01 T02790177  RH  054%=      5-min Rain = 0
KCH1 131029Z 20005KT 28/18 A2997 RMK A01 T02790176  RH  054%=      5-min Rain = 0
KCH1 131030Z 20006KT 28/18 A2997 RMK A01 T02790177  RH  054%=      5-min Rain = 0
KCH1 131031Z 20005KT 28/18 A2997 RMK A01 T02790177  RH  054%=      5-min Rain = 0
KCH1 131032Z 20006KT 28/18 A2997 RMK A01 T02790177  RH  054%=      5-min Rain = 0
KCH1 131033Z 21007KT 28/18 A2997 RMK A01 T02790177  RH  054%=      5-min Rain = 0
KCH1 131034Z 20007KT 28/18 A2997 RMK A01 T02790177  RH  054%=      5-min Rain = 0
KCH1 131035Z 19009KT 28/18 A2997 RMK A01 T02790177  RH  054%=      5-min Rain = 0
KCH1 131036Z 20008KT 28/18 A2997 RMK A01 T02790177  RH  054%=      5-min Rain = 0
KCH1 131037Z 20008KT 28/18 A2997 RMK A01 T02800177  RH  054%=      5-min Rain = 0
KCH1 131038Z 20006KT 28/18 A2997 RMK A01 T02790177  RH  054%=      5-min Rain = 0
KCH1 131039Z 20007KT 28/18 A2997 RMK A01 T02790177  RH  054%=      5-min Rain = 0
KCH1 131040Z 20006KT 28/18 A2997 RMK A01 T02790178  RH  054%=      5-min Rain = 0
KCH1 131041Z 20006KT 28/18 A2997 RMK A01 T02780177  RH  054%=      5-min Rain = 0
KCH1 131042Z 20006KT 28/18 A2997 RMK A01 T02780177  RH  054%=      5-min Rain = 0
KCH1 131043Z 20005KT 28/18 A2997 RMK A01 T02780177  RH  054%=      5-min Rain = 0
KCH1 131044Z 20007KT 28/18 A2997 RMK A01 T02770177  RH  055%=      5-min Rain = 0
KCH1 131045Z 21006G11KT 28/18 A2997 RMK A01 T02770178  RH  055%=      5-min Rain = 0
KCH1 131046Z 21007KT 28/18 A2997 RMK A01 T02770177  RH  055%=      5-min Rain = 0
KCH1 131047Z 20007KT 28/18 A2997 RMK A01 T02770177  RH  055%=      5-min Rain = 0
KCH1 131048Z 20006KT 28/18 A2997 RMK A01 T02770178  RH  055%=      5-min Rain = 0
KCH1 131049Z 21007KT 28/18 A2997 RMK A01 T02770177  RH  055%=      5-min Rain = 0
KCH1 131050Z 20006KT 28/18 A2997 RMK A01 T02770178  RH  055%=      5-min Rain = 0
KCH1 131051Z 20005KT 28/18 A2997 RMK A01 T02770178  RH  055%=      5-min Rain = 0
KCH1 131052Z 20007KT 28/18 A2997 RMK A01 T02770178  RH  055%=      5-min Rain = 0
KCH1 131053Z 20007G12KT 28/18 A2997 RMK A01 T02760178  RH  055%=      5-min Rain = 0
KCH1 131054Z 20007KT 28/18 A2997 RMK A01 T02760177  RH  055%=      5-min Rain = 0
KCH1 131055Z 20008KT 28/18 A2997 RMK A01 T02770177  RH  055%=      5-min Rain = 0
KCH1 131056Z 21006KT 28/18 A2997 RMK A01 T02770178  RH  055%=      5-min Rain = 0
KCH1 131057Z 20006KT 28/18 A2997 RMK A01 T02770178  RH  055%=      5-min Rain = 0
KCH1 131058Z 20006KT 28/18 A2998 RMK A01 T02760178  RH  055%=      5-min Rain = 0
KCH1 131059Z 19006KT 28/18 A2998 RMK A01 T02760178  RH  055%=      5-min Rain = 0
KCH1 131100Z 19004KT 28/18 A2998 RMK A01 T02760178  RH  055%=      5-min Rain = 0
KCH1 131101Z 20007KT 28/18 A2998 RMK A01 T02760178  RH  055%=      5-min Rain = 0
KCH1 131102Z 19006KT 28/18 A2998 RMK A01 T02750178  RH  055%=      5-min Rain = 0
KCH1 131103Z 20004KT 28/18 A2998 RMK A01 T02750178  RH  055%=      5-min Rain = 0
KCH1 131104Z 20006KT 27/18 A2998 RMK A01 T02740178  RH  056%=      5-min Rain = 0
KCH1 131105Z 19006KT 27/18 A2998 RMK A01 T02740178  RH  056%=      5-min Rain = 0
KCH1 131106Z 20006KT 27/18 A2998 RMK A01 T02740178  RH  056%=      5-min Rain = 0
KCH1 131107Z 19007KT 27/18 A2998 RMK A01 T02740178  RH  056%=      5-min Rain = 0
KCH1 131108Z 20007KT 27/18 A2998 RMK A01 T02740178  RH  056%=      5-min Rain = 0
KCH1 131109Z 20007KT 27/18 A2998 RMK A01 T02730178  RH  056%=      5-min Rain = 0
KCH1 131110Z 20006KT 27/18 A2998 RMK A01 T02740178  RH  056%=      5-min Rain = 0
KCH1 131111Z 19006KT 27/18 A2998 RMK A01 T02740178  RH  056%=      5-min Rain = 0
KCH1 131112Z 19005KT 27/18 A2998 RMK A01 T02730178  RH  056%=      5-min Rain = 0
KCH1 131113Z 20004KT 27/18 A2998 RMK A01 T02730178  RH  056%=      5-min Rain = 0
KCH1 131114Z 19005KT 27/18 A2998 RMK A01 T02720178  RH  056%=      5-min Rain = 0
KCH1 131115Z 18006KT 27/18 A2998 RMK A01 T02720178  RH  056%=      5-min Rain = 0
KCH1 131116Z 18005KT 27/18 A2998 RMK A01 T02710178  RH  057%=      5-min Rain = 0
KCH1 131117Z 18005KT 27/18 A2998 RMK A01 T02700178  RH  057%=      5-min Rain = 0
KCH1 131118Z 20004KT 27/18 A2998 RMK A01 T02710178  RH  057%=      5-min Rain = 0
KCH1 131119Z 20003KT 27/18 A2999 RMK A01 T02700178  RH  057%=      5-min Rain = 0
KCH1 131120Z 18004KT 27/18 A2999 RMK A01 T02690178  RH  057%=      5-min Rain = 0
KCH1 131121Z 19005KT 27/18 A2999 RMK A01 T02690178  RH  057%=      5-min Rain = 0
KCH1 131122Z 19004KT 27/18 A2999 RMK A01 T02690178  RH  057%=      5-min Rain = 0
KCH1 131123Z 18005KT 27/18 A2999 RMK A01 T02700178  RH  057%=      5-min Rain = 0
KCH1 131124Z 18005KT 27/18 A2999 RMK A01 T02690178  RH  057%=      5-min Rain = 0
KCH1 131125Z 17005KT 27/18 A2999 RMK A01 T02690178  RH  057%=      5-min Rain = 0
KCH1 131126Z 18004KT 27/18 A2999 RMK A01 T02690178  RH  057%=      5-min Rain = 0
KCH1 131127Z 18004KT 27/18 A2999 RMK A01 T02690178  RH  058%=      5-min Rain = 0
KCH1 131128Z 19005KT 27/18 A2999 RMK A01 T02680178  RH  058%=      5-min Rain = 0
KCH1 131129Z 19005KT 27/18 A2999 RMK A01 T02680178  RH  058%=      5-min Rain = 0
KCH1 131130Z 19006KT 27/18 A2999 RMK A01 T02680178  RH  058%=      5-min Rain = 0
KCH1 131131Z 18004KT 27/18 A2999 RMK A01 T02680178  RH  058%=      5-min Rain = 0
KCH1 131132Z 18004KT 27/18 A2999 RMK A01 T02690178  RH  058%=      5-min Rain = 0
KCH1 131133Z 18004KT 27/18 A2999 RMK A01 T02680178  RH  058%=      5-min Rain = 0
KCH1 131134Z 18005KT 27/18 A2999 RMK A01 T02670178  RH  058%=      5-min Rain = 0
KCH1 131135Z 18005KT 27/18 A2999 RMK A01 T02670178  RH  058%=      5-min Rain = 0
KCH1 131136Z 19005KT 27/18 A2999 RMK A01 T02660178  RH  058%=      5-min Rain = 0
KCH1 131137Z 19006KT 27/18 A2999 RMK A01 T02660178  RH  058%=      5-min Rain = 0
KCH1 131138Z 18005KT 27/18 A2999 RMK A01 T02660178  RH  059%=      5-min Rain = 0
KCH1 131139Z 18005KT 27/18 A2999 RMK A01 T02660178  RH  059%=      5-min Rain = 0
KCH1 131140Z 19006KT 27/18 A2999 RMK A01 T02660178  RH  059%=      5-min Rain = 0
KCH1 131141Z 19006KT 27/18 A2999 RMK A01 T02660178  RH  059%=      5-min Rain = 0
KCH1 131142Z 18005KT 27/18 A2999 RMK A01 T02660178  RH  059%=      5-min Rain = 0
KCH1 131143Z 19005KT 27/18 A2999 RMK A01 T02660178  RH  059%=      5-min Rain = 0
KCH1 131144Z 19006KT 27/18 A2999 RMK A01 T02660179  RH  059%=      5-min Rain = 0
KCH1 131145Z 19005KT 27/18 A2999 RMK A01 T02660179  RH  059%=      5-min Rain = 0
KCH1 131146Z 19005KT 27/18 A2999 RMK A01 T02660179  RH  059%=      5-min Rain = 0
KCH1 131147Z 19004KT 27/18 A2999 RMK A01 T02650178  RH  059%=      5-min Rain = 0
KCH1 131148Z 19006KT 27/18 A2999 RMK A01 T02650179  RH  059%=      5-min Rain = 0
KCH1 131149Z 19005KT 26/18 A2999 RMK A01 T02640178  RH  059%=      5-min Rain = 0
KCH1 131150Z 18005KT 26/18 A2999 RMK A01 T02640178  RH  059%=      5-min Rain = 0
KCH1 131151Z 19004KT 27/18 A30 RMK A01 T02650179  RH  059%=      5-min Rain = 0
KCH1 131152Z 18004KT 27/18 A30 RMK A01 T02650179  RH  059%=      5-min Rain = 0
KCH1 131153Z 18004KT 27/18 A30 RMK A01 T02650179  RH  059%=      5-min Rain = 0
KCH1 131154Z 17004KT 26/18 A30 RMK A01 T02640179  RH  059%=      5-min Rain = 0
KCH1 131155Z 18004KT 26/18 A30 RMK A01 T02630179  RH  060%=      5-min Rain = 0
KCH1 131156Z 18004KT 26/18 A30 RMK A01 T02630179  RH  060%=      5-min Rain = 0
KCH1 131157Z 19005KT 26/18 A30 RMK A01 T02620179  RH  060%=      5-min Rain = 0
KCH1 131158Z 18005KT 26/18 A30 RMK A01 T02630179  RH  060%=      5-min Rain = 0
KCH1 131159Z 19004KT 26/18 A30 RMK A01 T02630179  RH  060%=      5-min Rain = 0
KCH1 131200Z 19006KT 26/18 A30 RMK A01 T02630179  RH  060%=      5-min Rain = 0
KCH1 131201Z 19005KT 26/18 A30 RMK A01 T02630179  RH  060%=      5-min Rain = 0
KCH1 131202Z 19005KT 26/18 A30 RMK A01 T02630179  RH  060%=      5-min Rain = 0
KCH1 131203Z 19004KT 26/18 A30 RMK A01 T02620179  RH  060%=      5-min Rain = 0
KCH1 131204Z 19004KT 26/18 A30 RMK A01 T02620180  RH  061%=      5-min Rain = 0
KCH1 131205Z 19004KT 26/18 A30 RMK A01 T02620179  RH  061%=      5-min Rain = 0
KCH1 131206Z 19005KT 26/18 A30 RMK A01 T02610180  RH  061%=      5-min Rain = 0
KCH1 131207Z 19005KT 26/18 A30 RMK A01 T02610180  RH  061%=      5-min Rain = 0
KCH1 131208Z 18004KT 26/18 A30 RMK A01 T02610180  RH  061%=      5-min Rain = 0
KCH1 131209Z 18004KT 26/18 A30 RMK A01 T02600180  RH  061%=      5-min Rain = 0
KCH1 131210Z 17003KT 26/18 A30 RMK A01 T02600180  RH  061%=      5-min Rain = 0
KCH1 131211Z 17002KT 26/18 A30 RMK A01 T02590180  RH  062%=      5-min Rain = 0
KCH1 131212Z 16003KT 26/18 A30 RMK A01 T02590180  RH  062%=      5-min Rain = 0
KCH1 131213Z 16004KT 26/18 A30 RMK A01 T02570180  RH  062%=      5-min Rain = 0
KCH1 131214Z 15004KT 26/18 A30 RMK A01 T02570180  RH  063%=      5-min Rain = 0
KCH1 131215Z 15003KT 26/18 A30 RMK A01 T02560180  RH  063%=      5-min Rain = 0
KCH1 131216Z 15003KT 26/18 A30 RMK A01 T02550180  RH  063%=      5-min Rain = 0
KCH1 131217Z 15003KT 26/18 A30 RMK A01 T02550180  RH  063%=      5-min Rain = 0
KCH1 131218Z 15003KT 25/18 A30 RMK A01 T02540180  RH  063%=      5-min Rain = 0
KCH1 131219Z 15004KT 25/18 A30 RMK A01 T02530180  RH  064%=      5-min Rain = 0
KCH1 131220Z 15004KT 25/18 A30 RMK A01 T02530180  RH  064%=      5-min Rain = 0
KCH1 131221Z 15004KT 25/18 A30 RMK A01 T02530180  RH  064%=      5-min Rain = 0
KCH1 131222Z 15004KT 25/18 A30 RMK A01 T02520180  RH  064%=      5-min Rain = 0
KCH1 131223Z 15004KT 25/18 A30 RMK A01 T02510180  RH  065%=      5-min Rain = 0
KCH1 131224Z 15005KT 25/18 A30 RMK A01 T02500180  RH  065%=      5-min Rain = 0
KCH1 131225Z 15004KT 25/18 A30 RMK A01 T02500180  RH  065%=      5-min Rain = 0
KCH1 131226Z 15005KT 25/18 A30 RMK A01 T02500180  RH  065%=      5-min Rain = 0
KCH1 131227Z 15005KT 25/18 A30 RMK A01 T02500180  RH  065%=      5-min Rain = 0
KCH1 131228Z 15005KT 25/18 A30 RMK A01 T02490180  RH  065%=      5-min Rain = 0
KCH1 131229Z 16004KT 25/18 A30 RMK A01 T02490180  RH  065%=      5-min Rain = 0
KCH1 131230Z 16004KT 25/18 A30 RMK A01 T02490180  RH  066%=      5-min Rain = 0
KCH1 131231Z 16004KT 25/18 A30 RMK A01 T02490181  RH  066%=      5-min Rain = 0
KCH1 131232Z 16004KT 25/18 A30 RMK A01 T02490181  RH  066%=      5-min Rain = 0
KCH1 131233Z 16004KT 25/18 A30 RMK A01 T02490181  RH  066%=      5-min Rain = 0
KCH1 131234Z 16004KT 25/18 A30 RMK A01 T02490181  RH  066%=      5-min Rain = 0
KCH1 131235Z 17004KT 25/18 A30 RMK A01 T02490181  RH  066%=      5-min Rain = 0
KCH1 131236Z 16004KT 25/18 A30 RMK A01 T02500181  RH  066%=      5-min Rain = 0
KCH1 131237Z 16003KT 25/18 A30 RMK A01 T02490181  RH  066%=      5-min Rain = 0
KCH1 131238Z 16003KT 25/18 A30 RMK A01 T02490181  RH  066%=      5-min Rain = 0
KCH1 131239Z 16003KT 25/18 A30 RMK A01 T02490181  RH  066%=      5-min Rain = 0
KCH1 131240Z 16004KT 25/18 A30 RMK A01 T02500181  RH  066%=      5-min Rain = 0
KCH1 131241Z 16004KT 25/18 A30 RMK A01 T02500181  RH  066%=      5-min Rain = 0
KCH1 131242Z 17003KT 25/18 A30 RMK A01 T02500181  RH  066%=      5-min Rain = 0
KCH1 131243Z 17003KT 25/18 A30 RMK A01 T02500181  RH  065%=      5-min Rain = 0
KCH1 131244Z 16004KT 25/18 A30 RMK A01 T02500181  RH  065%=      5-min Rain = 0
KCH1 131245Z 17004KT 25/18 A30 RMK A01 T02510181  RH  065%=      5-min Rain = 0
KCH1 131246Z 17004KT 25/18 A30 RMK A01 T02510182  RH  065%=      5-min Rain = 0
KCH1 131247Z 17005KT 25/18 A30 RMK A01 T02510182  RH  065%=      5-min Rain = 0
KCH1 131248Z 17004KT 25/18 A30 RMK A01 T02510182  RH  065%=      5-min Rain = 0
KCH1 131249Z 17004KT 25/18 A30 RMK A01 T02520182  RH  065%=      5-min Rain = 0
KCH1 131250Z 17005KT 25/18 A30 RMK A01 T02530183  RH  065%=      5-min Rain = 0
KCH1 131251Z 16004KT 25/18 A30 RMK A01 T02520182  RH  065%=      5-min Rain = 0
KCH1 131252Z 16004KT 25/18 A30 RMK A01 T02520182  RH  065%=      5-min Rain = 0
KCH1 131253Z 18004KT 25/18 A30 RMK A01 T02530183  RH  065%=      5-min Rain = 0
KCH1 131254Z 17004KT 25/18 A30 RMK A01 T02530183  RH  065%=      5-min Rain = 0
KCH1 131255Z 17004KT 25/18 A30 RMK A01 T02530183  RH  065%=      5-min Rain = 0
KCH1 131256Z 17005KT 25/18 A30 RMK A01 T02540183  RH  065%=      5-min Rain = 0
KCH1 131257Z 17005KT 25/18 A30 RMK A01 T02540183  RH  065%=      5-min Rain = 0
KCH1 131258Z 18004KT 25/18 A30 RMK A01 T02540183  RH  065%=      5-min Rain = 0
KCH1 131259Z 17005KT 26/18 A30 RMK A01 T02550183  RH  065%=      5-min Rain = 0
KCH1 131300Z 17004KT 26/18 A30 RMK A01 T02550183  RH  064%=      5-min Rain = 0
KCH1 131301Z 17003KT 26/18 A30 RMK A01 T02550184  RH  064%=      5-min Rain = 0
KCH1 131302Z 17003KT 26/18 A30 RMK A01 T02560184  RH  064%=      5-min Rain = 0
KCH1 131303Z 17004KT 26/18 A30 RMK A01 T02570184  RH  064%=      5-min Rain = 0
KCH1 131304Z 17005KT 26/18 A30 RMK A01 T02580184  RH  064%=      5-min Rain = 0
KCH1 131305Z 16005KT 26/18 A30 RMK A01 T02580184  RH  064%=      5-min Rain = 0
KCH1 131306Z 17005KT 26/18 A30 RMK A01 T02580184  RH  064%=      5-min Rain = 0
KCH1 131307Z 17005KT 26/18 A30 RMK A01 T02590184  RH  063%=      5-min Rain = 0
KCH1 131308Z 16005KT 26/18 A30 RMK A01 T02590184  RH  063%=      5-min Rain = 0
KCH1 131309Z 16005KT 26/18 A30 RMK A01 T02590184  RH  063%=      5-min Rain = 0
KCH1 131310Z 17005KT 26/18 A3001 RMK A01 T02590184  RH  063%=      5-min Rain = 0
KCH1 131311Z 17005KT 26/18 A3001 RMK A01 T02600184  RH  063%=      5-min Rain = 0
KCH1 131312Z 17004KT 26/18 A3001 RMK A01 T02600184  RH  063%=      5-min Rain = 0
KCH1 131313Z 17003KT 26/19 A3001 RMK A01 T02600185  RH  063%=      5-min Rain = 0
KCH1 131314Z 17004KT 26/19 A3001 RMK A01 T02610185  RH  063%=      5-min Rain = 0
KCH1 131315Z 17005KT 26/19 A3001 RMK A01 T02620185  RH  063%=      5-min Rain = 0
KCH1 131316Z 17003KT 26/19 A3001 RMK A01 T02620185  RH  063%=      5-min Rain = 0
KCH1 131317Z 18004KT 26/19 A3001 RMK A01 T02630186  RH  063%=      5-min Rain = 0
KCH1 131318Z 16004KT 26/19 A3001 RMK A01 T02640186  RH  062%=      5-min Rain = 0
KCH1 131319Z 17005KT 27/19 A3001 RMK A01 T02650186  RH  062%=      5-min Rain = 0
KCH1 131320Z 18005KT 27/19 A3001 RMK A01 T02650186  RH  062%=      5-min Rain = 0
KCH1 131321Z 17005KT 27/19 A3001 RMK A01 T02650186  RH  062%=      5-min Rain = 0
KCH1 131322Z 15005KT 27/19 A3001 RMK A01 T02650187  RH  062%=      5-min Rain = 0
KCH1 131323Z 17004KT 27/19 A3001 RMK A01 T02650187  RH  062%=      5-min Rain = 0
KCH1 131324Z 17005KT 27/19 A3001 RMK A01 T02660187  RH  062%=      5-min Rain = 0
KCH1 131325Z 17005KT 27/19 A3001 RMK A01 T02670187  RH  062%=      5-min Rain = 0
KCH1 131326Z 18004KT 27/19 A3001 RMK A01 T02670187  RH  061%=      5-min Rain = 0
KCH1 131327Z 17006KT 27/19 A3001 RMK A01 T02680188  RH  061%=      5-min Rain = 0
KCH1 131328Z 18004KT 27/19 A3001 RMK A01 T02690188  RH  061%=      5-min Rain = 0
KCH1 131329Z 18004KT 27/19 A3001 RMK A01 T02700188  RH  061%=      5-min Rain = 0
KCH1 131330Z 18004KT 27/19 A3001 RMK A01 T02710189  RH  061%=      5-min Rain = 0
KCH1 131331Z 17004KT 27/19 A3001 RMK A01 T02730189  RH  060%=      5-min Rain = 0
KCH1 131332Z 18007KT 27/19 A3001 RMK A01 T02740189  RH  060%=      5-min Rain = 0
KCH1 131333Z 19008KT 28/19 A3001 RMK A01 T02750189  RH  060%=      5-min Rain = 0
KCH1 131334Z 19008KT 27/19 A3001 RMK A01 T02740189  RH  060%=      5-min Rain = 0
KCH1 131335Z 19008KT 28/19 A3001 RMK A01 T02750189  RH  059%=      5-min Rain = 0
KCH1 131336Z 18007KT 28/19 A3001 RMK A01 T02750189  RH  059%=      5-min Rain = 0
KCH1 131337Z 18009KT 28/19 A3001 RMK A01 T02760189  RH  059%=      5-min Rain = 0
KCH1 131338Z 18010KT 28/19 A3001 RMK A01 T02760189  RH  059%=      5-min Rain = 0
KCH1 131339Z 18009KT 28/19 A3001 RMK A01 T02760189  RH  059%=      5-min Rain = 0
KCH1 131340Z 19008KT 28/19 A3001 RMK A01 T02760190  RH  059%=      5-min Rain = 0
KCH1 131341Z 19009KT 28/19 A3001 RMK A01 T02760190  RH  059%=      5-min Rain = 0
KCH1 131342Z 21007G12KT 28/19 A3001 RMK A01 T02760190  RH  059%=      5-min Rain = 0
KCH1 131343Z 19007KT 28/19 A3001 RMK A01 T02760190  RH  059%=      5-min Rain = 0
KCH1 131344Z 19008KT 28/19 A3001 RMK A01 T02770191  RH  059%=      5-min Rain = 0
KCH1 131345Z 20010KT 28/19 A3001 RMK A01 T02780191  RH  059%=      5-min Rain = 0
KCH1 131346Z 19008KT 28/19 A3001 RMK A01 T02790191  RH  059%=      5-min Rain = 0
KCH1 131347Z 19007KT 28/19 A3001 RMK A01 T02790192  RH  059%=      5-min Rain = 0
KCH1 131348Z 20007KT 28/19 A3001 RMK A01 T02790192  RH  059%=      5-min Rain = 0
KCH1 131349Z 21005KT 28/19 A3001 RMK A01 T02790192  RH  059%=      5-min Rain = 0
KCH1 131350Z 20007KT 28/19 A3001 RMK A01 T02800192  RH  059%=      5-min Rain = 0
KCH1 131351Z 19008KT 28/19 A3001 RMK A01 T02810192  RH  059%=      5-min Rain = 0
KCH1 131352Z 19010KT 28/19 A3001 RMK A01 T02810192  RH  059%=      5-min Rain = 0
KCH1 131353Z 19009KT 28/19 A3001 RMK A01 T02810193  RH  059%=      5-min Rain = 0
KCH1 131354Z 20010KT 28/19 A3001 RMK A01 T02800193  RH  059%=      5-min Rain = 0
KCH1 131355Z 21012KT 28/19 A3001 RMK A01 T02800194  RH  059%=      5-min Rain = 0
KCH1 131356Z 20012G17KT 28/19 A3001 RMK A01 T02800194  RH  059%=      5-min Rain = 0
KCH1 131357Z 20012KT 28/19 A3001 RMK A01 T02800194  RH  060%=      5-min Rain = 0
KCH1 131358Z 20010KT 28/20 A3001 RMK A01 T02800195  RH  060%=      5-min Rain = 0
KCH1 131359Z 21009KT 28/20 A3001 RMK A01 T02800195  RH  060%=      5-min Rain = 0
KCH1 131400Z 21009KT 28/20 A3001 RMK A01 T02810195  RH  060%=      5-min Rain = 0
KCH1 131401Z 20009KT 28/20 A3001 RMK A01 T02820195  RH  059%=      5-min Rain = 0
KCH1 131402Z 19009KT 28/20 A3001 RMK A01 T02820195  RH  059%=      5-min Rain = 0
KCH1 131403Z 20011KT 28/20 A3001 RMK A01 T02820195  RH  059%=      5-min Rain = 0
KCH1 131404Z 20009KT 28/20 A3001 RMK A01 T02820195  RH  059%=      5-min Rain = 0
KCH1 131405Z 21007KT 28/20 A3001 RMK A01 T02820196  RH  059%=      5-min Rain = 0
KCH1 131406Z 22009G14KT 28/20 A3001 RMK A01 T02820196  RH  060%=      5-min Rain = 0
KCH1 131407Z 21008KT 28/20 A3001 RMK A01 T02830196  RH  059%=      5-min Rain = 0
KCH1 131408Z 20010KT 28/20 A3001 RMK A01 T02840197  RH  059%=      5-min Rain = 0
KCH1 131409Z 21009KT 29/20 A3001 RMK A01 T02850197  RH  059%=      5-min Rain = 0
KCH1 131410Z 21008KT 29/20 A3001 RMK A01 T02850198  RH  059%=      5-min Rain = 0
KCH1 131411Z 22012KT 29/20 A3001 RMK A01 T02860198  RH  059%=      5-min Rain = 0
KCH1 131412Z 22009G14KT 29/20 A3001 RMK A01 T02870198  RH  059%=      5-min Rain = 0
KCH1 131413Z 22011KT 29/20 A3001 RMK A01 T02870199  RH  059%=      5-min Rain = 0
KCH1 131414Z 22010KT 29/20 A3002 RMK A01 T02880199  RH  058%=      5-min Rain = 0
KCH1 131415Z 22008KT 29/20 A3002 RMK A01 T02890199  RH  058%=      5-min Rain = 0
KCH1 131416Z 21008G13KT 29/20 A3002 RMK A01 T02910200  RH  058%=      5-min Rain = 0
KCH1 131417Z 21008KT 29/20 A3001 RMK A01 T02910200  RH  058%=      5-min Rain = 0
KCH1 131418Z 21006G11KT 29/20 A3002 RMK A01 T02910200  RH  058%=      5-min Rain = 0
KCH1 131419Z 20009KT 29/20 A3002 RMK A01 T02910200  RH  058%=      5-min Rain = 0
KCH1 131420Z 21008G13KT 29/20 A3002 RMK A01 T02920200  RH  058%=      5-min Rain = 0
KCH1 131421Z 22012KT 29/20 A3002 RMK A01 T02930200  RH  057%=      5-min Rain = 0
KCH1 131422Z 22014KT 29/20 A3002 RMK A01 T02920199  RH  057%=      5-min Rain = 0
KCH1 131423Z 23010KT 29/20 A3002 RMK A01 T02900199  RH  058%=      5-min Rain = 0
KCH1 131424Z 22010G15KT 29/20 A3002 RMK A01 T02900199  RH  058%=      5-min Rain = 0
KCH1 131425Z 20005KT 29/20 A3002 RMK A01 T02910200  RH  058%=      5-min Rain = 0
KCH1 131426Z 21006G12KT 29/20 A3002 RMK A01 T02940201  RH  057%=      5-min Rain = 0
KCH1 131427Z 21014KT 30/20 A3002 RMK A01 T02960200  RH  056%=      5-min Rain = 0
KCH1 131428Z 21011G17KT 29/20 A3002 RMK A01 T02940199  RH  056%=      5-min Rain = 0
KCH1 131429Z 20011G18KT 29/20 A3002 RMK A01 T02930198  RH  057%=      5-min Rain = 0
KCH1 131430Z 22010KT 29/20 A3002 RMK A01 T02920198  RH  057%=      5-min Rain = 0
KCH1 131431Z 22008G13KT 29/20 A3002 RMK A01 T02930198  RH  056%=      5-min Rain = 0
KCH1 131432Z 23011KT 29/20 A3002 RMK A01 T02930198  RH  057%=      5-min Rain = 0
KCH1 131433Z 21014KT 29/20 A3001 RMK A01 T02930198  RH  057%=      5-min Rain = 0
KCH1 131434Z 23008KT 29/20 A3002 RMK A01 T02930198  RH  057%=      5-min Rain = 0
KCH1 131435Z 21012G17KT 29/20 A3002 RMK A01 T02940198  RH  056%=      5-min Rain = 0
KCH1 131436Z 22013KT 30/20 A3002 RMK A01 T02950197  RH  055%=      5-min Rain = 0
KCH1 131437Z 21010KT 29/20 A3002 RMK A01 T02940197  RH  056%=      5-min Rain = 0
KCH1 131438Z 20012KT 29/20 A3002 RMK A01 T02940197  RH  056%=      5-min Rain = 0
KCH1 131439Z 21010KT 29/20 A3002 RMK A01 T02940197  RH  056%=      5-min Rain = 0
KCH1 131440Z 21015KT 30/20 A3002 RMK A01 T02950197  RH  056%=      5-min Rain = 0
KCH1 131441Z 20010KT 30/20 A3002 RMK A01 T02950198  RH  056%=      5-min Rain = 0
KCH1 131442Z 20007KT 30/20 A3002 RMK A01 T02950199  RH  056%=      5-min Rain = 0
KCH1 131443Z 20011G16KT 30/20 A3002 RMK A01 T02970199  RH  055%=      5-min Rain = 0
KCH1 131444Z 22014KT 30/20 A3002 RMK A01 T02980198  RH  055%=      5-min Rain = 0
KCH1 131445Z 21011G16KT 30/20 A3002 RMK A01 T02960198  RH  056%=      5-min Rain = 0
KCH1 131446Z 20011KT 30/20 A3002 RMK A01 T02950198  RH  056%=      5-min Rain = 0
KCH1 131447Z 21012KT 30/20 A3002 RMK A01 T02950198  RH  056%=      5-min Rain = 0
KCH1 131448Z 20011KT 30/20 A3002 RMK A01 T02950198  RH  056%=      5-min Rain = 0
KCH1 131449Z 21010G15KT 30/20 A3002 RMK A01 T02960198  RH  056%=      5-min Rain = 0
KCH1 131450Z 21010KT 30/20 A3002 RMK A01 T02970198  RH  055%=      5-min Rain = 0
KCH1 131451Z 20012KT 30/20 A3002 RMK A01 T02970198  RH  055%=      5-min Rain = 0
KCH1 131452Z 20010KT 30/20 A3002 RMK A01 T02970198  RH  055%=      5-min Rain = 0
KCH1 131453Z 21011KT 30/20 A3002 RMK A01 T02980198  RH  055%=      5-min Rain = 0
KCH1 131454Z 20013KT 30/20 A3002 RMK A01 T02990198  RH  055%=      5-min Rain = 0
KCH1 131455Z 19012KT 30/20 A3002 RMK A01 T02990198  RH  055%=      5-min Rain = 0
KCH1 131456Z 19011KT 30/20 A3002 RMK A01 T02990198  RH  055%=      5-min Rain = 0
KCH1 131457Z 20012KT 30/20 A3002 RMK A01 T03000198  RH  055%=      5-min Rain = 0
KCH1 131458Z 20012KT 30/20 A3002 RMK A01 T03000199  RH  055%=      5-min Rain = 0
KCH1 131459Z 21012G18KT 30/20 A3002 RMK A01 T03010199  RH  054%=      5-min Rain = 0
KCH1 131500Z 22012KT 30/20 A3001 RMK A01 T03010198  RH  054%=      5-min Rain = 0
KCH1 131501Z 22009KT 30/20 A3002 RMK A01 T03010198  RH  054%=      5-min Rain = 0
KCH1 131502Z 23009KT 30/20 A3002 RMK A01 T03030198  RH  053%=      5-min Rain = 0
KCH1 131503Z 21008G13KT 30/20 A3002 RMK A01 T03040199  RH  053%=      5-min Rain = 0
KCH1 131504Z 20011KT 31/20 A3002 RMK A01 T03050199  RH  053%=      5-min Rain = 0
KCH1 131505Z 19013G18KT 31/20 A3002 RMK A01 T03060199  RH  053%=      5-min Rain = 0
KCH1 131506Z 21010G15KT 31/20 A3002 RMK A01 T03050198  RH  053%=      5-min Rain = 0
KCH1 131507Z 22012KT 30/20 A3002 RMK A01 T03040199  RH  053%=      5-min Rain = 0
KCH1 131508Z 20009KT 30/20 A3002 RMK A01 T03030199  RH  054%=      5-min Rain = 0
KCH1 131509Z 20008KT 30/20 A3002 RMK A01 T03040199  RH  054%=      5-min Rain = 0
KCH1 131510Z 20010KT 31/20 A3002 RMK A01 T03050199  RH  053%=      5-min Rain = 0
KCH1 131511Z 19006G12KT 31/20 A3002 RMK A01 T03070199  RH  053%=      5-min Rain = 0
KCH1 131512Z 18010KT 31/20 A3002 RMK A01 T03090199  RH  052%=      5-min Rain = 0
KCH1 131513Z 20009KT 31/20 A3002 RMK A01 T03100199  RH  052%=      5-min Rain = 0
KCH1 131514Z 19008KT 31/20 A3002 RMK A01 T03100200  RH  052%=      5-min Rain = 0
KCH1 131515Z 20007KT 31/20 A3002 RMK A01 T03100199  RH  052%=      5-min Rain = 0
KCH1 131516Z 19009KT 31/20 A3002 RMK A01 T03120199  RH  051%=      5-min Rain = 0
KCH1 131517Z 19010KT 31/20 A3002 RMK A01 T03110200  RH  051%=      5-min Rain = 0
KCH1 131518Z 18009G14KT 31/20 A3002 RMK A01 T03110198  RH  051%=      5-min Rain = 0
KCH1 131519Z 19010KT 31/20 A3002 RMK A01 T03110197  RH  050%=      5-min Rain = 0
KCH1 131520Z 18011G16KT 31/20 A3002 RMK A01 T03110197  RH  051%=      5-min Rain = 0
KCH1 131521Z 20012KT 31/20 A3002 RMK A01 T03110196  RH  051%=      5-min Rain = 0
KCH1 131522Z 21008KT 31/20 A3002 RMK A01 T03090197  RH  051%=      5-min Rain = 0
KCH1 131523Z 20010KT 31/20 A3002 RMK A01 T03100197  RH  051%=      5-min Rain = 0
KCH1 131524Z 20010KT 31/20 A3002 RMK A01 T03110197  RH  051%=      5-min Rain = 0
KCH1 131525Z 19009G14KT 31/20 A3002 RMK A01 T03120197  RH  051%=      5-min Rain = 0
KCH1 131526Z 19007KT 31/20 A3002 RMK A01 T03140199  RH  050%=      5-min Rain = 0
KCH1 131527Z 18010G15KT 32/20 A3002 RMK A01 T03190199  RH  049%=      5-min Rain = 0
KCH1 131528Z 20011KT 32/20 A3002 RMK A01 T03200198  RH  048%=      5-min Rain = 0
KCH1 131529Z 21009KT 32/20 A3002 RMK A01 T03180198  RH  049%=      5-min Rain = 0
KCH1 131530Z 20011KT 32/20 A3002 RMK A01 T03150196  RH  049%=      5-min Rain = 0
KCH1 131531Z 19011KT 31/20 A3002 RMK A01 T03140195  RH  049%=      5-min Rain = 0
KCH1 131532Z 18010KT 31/20 A3002 RMK A01 T03140195  RH  049%=      5-min Rain = 0
KCH1 131533Z 19011KT 32/20 A3002 RMK A01 T03170195  RH  048%=      5-min Rain = 0
KCH1 131534Z 20005KT 32/20 A3002 RMK A01 T03190195  RH  048%=      5-min Rain = 0
KCH1 131535Z 22007KT 32/20 A3002 RMK A01 T03200196  RH  048%=      5-min Rain = 0
KCH1 131536Z 22009KT 32/20 A3002 RMK A01 T03220196  RH  047%=      5-min Rain = 0
KCH1 131537Z 22009KT 32/20 A3002 RMK A01 T03210195  RH  048%=      5-min Rain = 0
KCH1 131538Z 21010KT 32/19 A3002 RMK A01 T03190194  RH  047%=      5-min Rain = 0
KCH1 131539Z 22011KT 32/19 A3002 RMK A01 T03190194  RH  048%=      5-min Rain = 0
KCH1 131540Z 21010KT 32/19 A3002 RMK A01 T03170194  RH  048%=      5-min Rain = 0
KCH1 131541Z 22009G14KT 32/19 A3002 RMK A01 T03170194  RH  048%=      5-min Rain = 0
KCH1 131542Z 22010G15KT 32/19 A3002 RMK A01 T03180192  RH  047%=      5-min Rain = 0
KCH1 131543Z 18009KT 32/19 A3002 RMK A01 T03180192  RH  047%=      5-min Rain = 0
KCH1 131544Z 19010KT 32/19 A3002 RMK A01 T03190193  RH  047%=      5-min Rain = 0
KCH1 131545Z 20011KT 32/19 A3002 RMK A01 T03210191  RH  046%=      5-min Rain = 0
KCH1 131546Z 20011KT 32/19 A3002 RMK A01 T03210190  RH  046%=      5-min Rain = 0
KCH1 131547Z 20011KT 32/19 A3002 RMK A01 T03210190  RH  046%=      5-min Rain = 0
KCH1 131548Z 19011KT 32/19 A3002 RMK A01 T03200189  RH  046%=      5-min Rain = 0
KCH1 131549Z 21010KT 32/19 A3002 RMK A01 T03200189  RH  046%=      5-min Rain = 0
KCH1 131550Z 21013KT 32/19 A3002 RMK A01 T03220190  RH  046%=      5-min Rain = 0
KCH1 131551Z 22009KT 32/19 A3002 RMK A01 T03210192  RH  046%=      5-min Rain = 0
KCH1 131552Z 23010KT 32/19 A3002 RMK A01 T03210191  RH  046%=      5-min Rain = 0
KCH1 131553Z 22008KT 32/19 A3002 RMK A01 T03220191  RH  046%=      5-min Rain = 0
KCH1 131554Z 19007KT 33/19 A3002 RMK A01 T03250191  RH  045%=      5-min Rain = 0
KCH1 131555Z 20013KT 33/19 A3002 RMK A01 T03270192  RH  045%=      5-min Rain = 0
KCH1 131556Z 20013KT 33/19 A3002 RMK A01 T03260189  RH  044%=      5-min Rain = 0
KCH1 131557Z 20012KT 32/19 A3002 RMK A01 T03240187  RH  044%=      5-min Rain = 0
KCH1 131558Z 20011KT 32/19 A3002 RMK A01 T03220186  RH  045%=      5-min Rain = 0
KCH1 131559Z 20010KT 32/19 A3002 RMK A01 T03210186  RH  045%=      5-min Rain = 0
KCH1 131600Z 19011KT 32/19 A3002 RMK A01 T03210187  RH  045%=      5-min Rain = 0
KCH1 131601Z 19008KT 32/19 A3002 RMK A01 T03230187  RH  045%=      5-min Rain = 0
KCH1 131602Z 20007KT 33/19 A3002 RMK A01 T03270188  RH  044%=      5-min Rain = 0
KCH1 131603Z 21012KT 33/19 A3002 RMK A01 T03300188  RH  043%=      5-min Rain = 0
KCH1 131604Z 20010G15KT 33/19 A3002 RMK A01 T03300185  RH  042%=      5-min Rain = 0
KCH1 131605Z 19011G16KT 33/19 A3002 RMK A01 T03270185  RH  043%=      5-min Rain = 0
KCH1 131606Z 18012KT 33/18 A3002 RMK A01 T03280183  RH  042%=      5-min Rain = 0
KCH1 131607Z 19012KT 33/18 A3002 RMK A01 T03290184  RH  042%=      5-min Rain = 0
KCH1 131608Z 22011KT 33/18 A3002 RMK A01 T03300184  RH  042%=      5-min Rain = 0
KCH1 131609Z 21012KT 33/18 A3002 RMK A01 T03310184  RH  042%=      5-min Rain = 0
KCH1 131610Z 21012KT 33/18 A3002 RMK A01 T03280184  RH  042%=      5-min Rain = 0
KCH1 131611Z 19014KT 33/18 A3002 RMK A01 T03270184  RH  043%=      5-min Rain = 0
KCH1 131612Z 19013KT 33/18 A3002 RMK A01 T03260184  RH  043%=      5-min Rain = 0
KCH1 131613Z 19011KT 33/19 A3002 RMK A01 T03270185  RH  043%=      5-min Rain = 0
KCH1 131614Z 19011G16KT 33/19 A3002 RMK A01 T03280185  RH  043%=      5-min Rain = 0
KCH1 131615Z 20009KT 33/19 A3002 RMK A01 T03290186  RH  043%=      5-min Rain = 0
KCH1 131616Z 20011KT 33/19 A3002 RMK A01 T03310185  RH  042%=      5-min Rain = 0
KCH1 131617Z 23009KT 33/19 A3002 RMK A01 T03320185  RH  042%=      5-min Rain = 0
KCH1 131618Z 22011G18KT 33/19 A3002 RMK A01 T03330186  RH  042%=      5-min Rain = 0
KCH1 131619Z 22010G15KT 33/19 A3002 RMK A01 T03310186  RH  042%=      5-min Rain = 0
KCH1 131620Z 22010KT 33/19 A3002 RMK A01 T03310186  RH  042%=      5-min Rain = 0
KCH1 131621Z 21008G13KT 33/19 A3002 RMK A01 T03300186  RH  042%=      5-min Rain = 0
KCH1 131622Z 20006KT 33/19 A3002 RMK A01 T03300186  RH  042%=      5-min Rain = 0
KCH1 131623Z 18014KT 33/19 A3002 RMK A01 T03340186  RH  042%=      5-min Rain = 0
KCH1 131624Z 17011KT 33/19 A3002 RMK A01 T03340186  RH  041%=      5-min Rain = 0
KCH1 131625Z 19011KT 34/19 A3002 RMK A01 T03360187  RH  041%=      5-min Rain = 0
KCH1 131626Z 19011G16KT 34/19 A3002 RMK A01 T03360187  RH  041%=      5-min Rain = 0
KCH1 131627Z 20013KT 34/19 A3002 RMK A01 T03360187  RH  041%=      5-min Rain = 0
KCH1 131628Z 20011KT 34/19 A3002 RMK A01 T03350186  RH  041%=      5-min Rain = 0
KCH1 131629Z 19012KT 33/19 A3002 RMK A01 T03330186  RH  042%=      5-min Rain = 0
KCH1 131630Z 19012KT 33/19 A3002 RMK A01 T03320186  RH  042%=      5-min Rain = 0
KCH1 131631Z 19012KT 33/18 A3002 RMK A01 T03310184  RH  042%=      5-min Rain = 0
KCH1 131632Z 20010KT 33/19 A3002 RMK A01 T03310185  RH  042%=      5-min Rain = 0
KCH1 131633Z 21008KT 33/18 A3002 RMK A01 T03310184  RH  042%=      5-min Rain = 0
KCH1 131634Z 21013G18KT 33/18 A3002 RMK A01 T03340183  RH  041%=      5-min Rain = 0
KCH1 131635Z 18013KT 34/18 A3002 RMK A01 T03350184  RH  041%=      5-min Rain = 0
KCH1 131636Z 18011G16KT 34/19 A3002 RMK A01 T03360185  RH  041%=      5-min Rain = 0
KCH1 131637Z 21009KT 34/19 A3002 RMK A01 T03370186  RH  041%=      5-min Rain = 0
KCH1 131638Z 20007KT 34/19 A3002 RMK A01 T03380185  RH  040%=      5-min Rain = 0
KCH1 131639Z 16009KT 34/18 A3002 RMK A01 T03380184  RH  040%=      5-min Rain = 0
KCH1 131640Z 18010KT 34/19 A3002 RMK A01 T03420185  RH  040%=      5-min Rain = 0
KCH1 131641Z 22009G14KT 35/19 A3002 RMK A01 T03470186  RH  039%=      5-min Rain = 0
KCH1 131642Z 22012KT 35/19 A3002 RMK A01 T03480185  RH  038%=      5-min Rain = 0
KCH1 131643Z 19009G15KT 35/18 A3002 RMK A01 T03460184  RH  038%=      5-min Rain = 0
KCH1 131644Z 20009KT 34/18 A3002 RMK A01 T03430180  RH  038%=      5-min Rain = 0
KCH1 131645Z 21009KT 34/18 A3002 RMK A01 T03430182  RH  038%=      5-min Rain = 0
KCH1 131646Z 22009KT 35/18 A3002 RMK A01 T03450182  RH  038%=      5-min Rain = 0
KCH1 131647Z 19010KT 34/18 A3002 RMK A01 T03420181  RH  039%=      5-min Rain = 0
KCH1 131648Z 19010G15KT 34/18 A3002 RMK A01 T03400181  RH  039%=      5-min Rain = 0
KCH1 131649Z 19011G16KT 34/18 A3002 RMK A01 T03410176  RH  038%=      5-min Rain = 0
KCH1 131650Z 19010G15KT 35/18 A3002 RMK A01 T03460178  RH  037%=      5-min Rain = 0
KCH1 131651Z 21012G17KT 35/18 A3002 RMK A01 T03480179  RH  037%=      5-min Rain = 0
KCH1 131652Z 22010G17KT 34/18 A3002 RMK A01 T03430181  RH  038%=      5-min Rain = 0
KCH1 131653Z 22009KT 34/18 A3002 RMK A01 T03410180  RH  039%=      5-min Rain = 0
KCH1 131654Z 22009KT 34/18 A3002 RMK A01 T03390178  RH  038%=      5-min Rain = 0
KCH1 131655Z 20011KT 34/18 A3002 RMK A01 T03440177  RH  037%=      5-min Rain = 0
KCH1 131656Z 19010G15KT 35/18 A3002 RMK A01 T03490177  RH  036%=      5-min Rain = 0
KCH1 131657Z 19011KT 35/18 A3002 RMK A01 T03490179  RH  037%=      5-min Rain = 0
KCH1 131658Z 20009KT 35/18 A3002 RMK A01 T03460180  RH  037%=      5-min Rain = 0
KCH1 131659Z 22008KT 34/18 A3002 RMK A01 T03440181  RH  038%=      5-min Rain = 0
KCH1 131700Z 22007KT 34/18 A3002 RMK A01 T03440180  RH  038%=      5-min Rain = 0
KCH1 131701Z 22009KT 34/18 A3002 RMK A01 T03420178  RH  038%=      5-min Rain = 0
KCH1 131702Z 21009KT 34/18 A3002 RMK A01 T03400181  RH  039%=      5-min Rain = 0
KCH1 131703Z 20008KT 34/18 A3002 RMK A01 T03400182  RH  039%=      5-min Rain = 0
KCH1 131704Z 23010KT 34/18 A3001 RMK A01 T03410182  RH  039%=      5-min Rain = 0
KCH1 131705Z 22011KT 34/18 A3001 RMK A01 T03420182  RH  039%=      5-min Rain = 0
KCH1 131706Z 21012KT 34/18 A3001 RMK A01 T03440181  RH  038%=      5-min Rain = 0
KCH1 131707Z 20013KT 35/18 A3001 RMK A01 T03460179  RH  037%=      5-min Rain = 0
KCH1 131708Z 20012KT 35/18 A3001 RMK A01 T03450180  RH  038%=      5-min Rain = 0
KCH1 131709Z 21011KT 34/18 A3001 RMK A01 T03420180  RH  038%=      5-min Rain = 0
KCH1 131710Z 19009KT 34/18 A3001 RMK A01 T03410178  RH  038%=      5-min Rain = 0
KCH1 131711Z 20010KT 34/18 A3001 RMK A01 T03430179  RH  038%=      5-min Rain = 0
KCH1 131712Z 21010KT 35/18 A3001 RMK A01 T03470181  RH  038%=      5-min Rain = 0
KCH1 131713Z 18009KT 34/18 A3001 RMK A01 T03430181  RH  038%=      5-min Rain = 0
KCH1 131714Z 19010KT 34/18 A3001 RMK A01 T03410182  RH  039%=      5-min Rain = 0
KCH1 131715Z 19012KT 34/18 A3001 RMK A01 T03400180  RH  039%=      5-min Rain = 0
KCH1 131716Z 23011KT 34/18 A3001 RMK A01 T03390178  RH  038%=      5-min Rain = 0
KCH1 131717Z 22010KT 34/18 A3001 RMK A01 T03380178  RH  039%=      5-min Rain = 0
KCH1 131718Z 21011G17KT 34/18 A3001 RMK A01 T03380178  RH  039%=      5-min Rain = 0
KCH1 131719Z 20010KT 34/18 A3001 RMK A01 T03390179  RH  039%=      5-min Rain = 0
KCH1 131720Z 21007KT 34/18 A3001 RMK A01 T03390180  RH  039%=      5-min Rain = 0
KCH1 131721Z 23010KT 34/18 A3001 RMK A01 T03430181  RH  038%=      5-min Rain = 0
KCH1 131722Z 24010KT 35/18 A3001 RMK A01 T03450181  RH  038%=      5-min Rain = 0
KCH1 131723Z 23008KT 34/18 A3001 RMK A01 T03430181  RH  038%=      5-min Rain = 0
KCH1 131724Z 22008KT 34/18 A3001 RMK A01 T03430182  RH  039%=      5-min Rain = 0
KCH1 131725Z 19009KT 35/18 A3001 RMK A01 T03470181  RH  037%=      5-min Rain = 0
KCH1 131726Z 19009G14KT 35/18 A3001 RMK A01 T03490181  RH  037%=      5-min Rain = 0
KCH1 131727Z 16009KT 35/18 A3001 RMK A01 T03510181  RH  037%=      5-min Rain = 0
KCH1 131728Z 20008KT 35/18 A3001 RMK A01 T03510181  RH  037%=      5-min Rain = 0
KCH1 131729Z 20008KT 35/18 A3001 RMK A01 T03510181  RH  037%=      5-min Rain = 0
KCH1 131730Z 22006KT 35/18 A3001 RMK A01 T03490179  RH  037%=      5-min Rain = 0
KCH1 131731Z 20009KT 35/18 A30 RMK A01 T03510181  RH  037%=      5-min Rain = 0
KCH1 131732Z 20010KT 36/18 A3001 RMK A01 T03580182  RH  036%=      5-min Rain = 0
KCH1 131733Z 18008KT 36/18 A30 RMK A01 T03570182  RH  036%=      5-min Rain = 0
KCH1 131734Z 18013KT 36/18 A30 RMK A01 T03580182  RH  035%=      5-min Rain = 0
KCH1 131735Z 21011KT 36/18 A30 RMK A01 T03580182  RH  036%=      5-min Rain = 0
KCH1 131736Z 20006KT 36/18 A30 RMK A01 T03570183  RH  036%=      5-min Rain = 0
KCH1 131737Z 18007KT 36/18 A30 RMK A01 T03590182  RH  036%=      5-min Rain = 0
KCH1 131738Z 21007G14KT 36/18 A30 RMK A01 T03630182  RH  035%=      5-min Rain = 0
KCH1 131739Z 20010KT 37/18 A30 RMK A01 T03660182  RH  034%=      5-min Rain = 0
KCH1 131740Z 19008KT 36/18 A30 RMK A01 T03640181  RH  034%=      5-min Rain = 0
KCH1 131741Z 21008G14KT 36/18 A30 RMK A01 T03630182  RH  034%=      5-min Rain = 0
KCH1 131742Z 19009KT 36/18 A30 RMK A01 T03630180  RH  034%=      5-min Rain = 0
KCH1 131743Z 18011KT 36/18 A30 RMK A01 T03620176  RH  033%=      5-min Rain = 0
KCH1 131744Z 18008KT 36/18 A30 RMK A01 T03600175  RH  034%=      5-min Rain = 0
KCH1 131745Z 19012G19KT 36/17 A30 RMK A01 T03570174  RH  034%=      5-min Rain = 0
KCH1 131746Z 20011KT 36/17 A30 RMK A01 T03550173  RH  034%=      5-min Rain = 0
KCH1 131747Z 20009KT 35/17 A30 RMK A01 T03520172  RH  035%=      5-min Rain = 0
KCH1 131748Z 19013KT 35/17 A30 RMK A01 T03510172  RH  035%=      5-min Rain = 0
KCH1 131749Z 18011KT 35/17 A30 RMK A01 T03510171  RH  035%=      5-min Rain = 0
KCH1 131750Z 19009KT 35/17 A30 RMK A01 T03520172  RH  035%=      5-min Rain = 0
KCH1 131751Z 19010KT 35/17 A30 RMK A01 T03530174  RH  035%=      5-min Rain = 0
KCH1 131752Z 21009KT 36/17 A30 RMK A01 T03560171  RH  033%=      5-min Rain = 0
KCH1 131753Z 20007KT 36/17 A30 RMK A01 T03560169  RH  033%=      5-min Rain = 0
KCH1 131754Z 20006G14KT 36/17 A30 RMK A01 T03550169  RH  033%=      5-min Rain = 0
KCH1 131755Z 19012KT 36/17 A30 RMK A01 T03560173  RH  034%=      5-min Rain = 0
KCH1 131756Z 17009KT 36/17 A30 RMK A01 T03570173  RH  034%=      5-min Rain = 0
KCH1 131757Z 19007KT 36/17 A30 RMK A01 T03580173  RH  034%=      5-min Rain = 0
KCH1 131758Z 19007KT 36/17 A30 RMK A01 T03600173  RH  033%=      5-min Rain = 0
KCH1 131759Z 19008KT 36/17 A30 RMK A01 T03600167  RH  032%=      5-min Rain = 0
KCH1 131800Z 20008KT 36/17 A30 RMK A01 T03550169  RH  033%=      5-min Rain = 0
KCH1 131801Z 19006G11KT 35/17 A30 RMK A01 T03530173  RH  035%=      5-min Rain = 0
KCH1 131802Z 19012KT 35/17 A30 RMK A01 T03530170  RH  034%=      5-min Rain = 0
KCH1 131803Z 19008G14KT 35/17 A30 RMK A01 T03530168  RH  034%=      5-min Rain = 0
KCH1 131804Z 18008KT 36/17 A30 RMK A01 T03570169  RH  033%=      5-min Rain = 0
KCH1 131805Z 17009KT 36/17 A30 RMK A01 T03600167  RH  032%=      5-min Rain = 0
KCH1 131806Z 17010G16KT 36/17 A2999 RMK A01 T03570169  RH  033%=      5-min Rain = 0
KCH1 131807Z 22012G18KT 36/17 A2999 RMK A01 T03560170  RH  033%=      5-min Rain = 0
KCH1 131808Z 20008KT 36/17 A30 RMK A01 T03550169  RH  033%=      5-min Rain = 0
KCH1 131809Z 20009KT 35/17 A2999 RMK A01 T03520170  RH  034%=      5-min Rain = 0
KCH1 131810Z 18005KT 35/17 A2999 RMK A01 T03490171  RH  035%=      5-min Rain = 0
KCH1 131811Z 20008KT 35/17 A2999 RMK A01 T03500171  RH  035%=      5-min Rain = 0
KCH1 131812Z 18007KT 36/17 A2999 RMK A01 T03560174  RH  034%=      5-min Rain = 0
KCH1 131813Z 21008KT 36/17 A2999 RMK A01 T03620173  RH  033%=      5-min Rain = 0
KCH1 131814Z 21007KT 36/17 A2999 RMK A01 T03640173  RH  033%=      5-min Rain = 0
KCH1 131815Z 22008KT 37/17 A2999 RMK A01 T03660173  RH  032%=      5-min Rain = 0
KCH1 131816Z 22009G14KT 37/17 A2999 RMK A01 T03690173  RH  031%=      5-min Rain = 0
KCH1 131817Z 23011KT 37/17 A2999 RMK A01 T03690171  RH  031%=      5-min Rain = 0
KCH1 131818Z 23008KT 37/17 A2999 RMK A01 T03660169  RH  031%=      5-min Rain = 0
KCH1 131819Z 22011KT 37/17 A2999 RMK A01 T03650168  RH  031%=      5-min Rain = 0
KCH1 131820Z 22007KT 36/17 A2999 RMK A01 T03640166  RH  031%=      5-min Rain = 0
KCH1 131821Z 20008KT 37/17 A2999 RMK A01 T03660166  RH  031%=      5-min Rain = 0
KCH1 131822Z 20012KT 37/17 A2998 RMK A01 T03670166  RH  030%=      5-min Rain = 0
KCH1 131823Z 19012KT 37/16 A2998 RMK A01 T03670164  RH  030%=      5-min Rain = 0
KCH1 131824Z 20011KT 37/17 A2998 RMK A01 T03680166  RH  030%=      5-min Rain = 0
KCH1 131825Z 22007KT 37/17 A2998 RMK A01 T03690167  RH  030%=      5-min Rain = 0
KCH1 131826Z 23009KT 37/16 A2998 RMK A01 T03680164  RH  030%=      5-min Rain = 0
KCH1 131827Z 21011KT 37/16 A2998 RMK A01 T03670161  RH  030%=      5-min Rain = 0
KCH1 131828Z 20010KT 37/16 A2998 RMK A01 T03650157  RH  029%=      5-min Rain = 0
KCH1 131829Z 18009KT 36/16 A2998 RMK A01 T03600157  RH  030%=      5-min Rain = 0
KCH1 131830Z 20009KT 36/16 A2998 RMK A01 T03580159  RH  031%=      5-min Rain = 0
KCH1 131831Z 18011KT 36/16 A2998 RMK A01 T03590161  RH  031%=      5-min Rain = 0
KCH1 131832Z 19006G11KT 36/16 A2998 RMK A01 T03600163  RH  031%=      5-min Rain = 0
KCH1 131833Z 18012KT 36/16 A2998 RMK A01 T03610161  RH  031%=      5-min Rain = 0
KCH1 131834Z 18011G16KT 36/16 A2998 RMK A01 T03630160  RH  030%=      5-min Rain = 0
KCH1 131835Z 18011KT 37/16 A2998 RMK A01 T03650157  RH  029%=      5-min Rain = 0
KCH1 131836Z 18012KT 37/16 A2998 RMK A01 T03650156  RH  029%=      5-min Rain = 0
KCH1 131837Z 18011KT 37/15 A2998 RMK A01 T03680154  RH  028%=      5-min Rain = 0
KCH1 131838Z 17008KT 37/16 A2998 RMK A01 T03710155  RH  028%=      5-min Rain = 0
KCH1 131839Z 19011KT 37/16 A2998 RMK A01 T03740156  RH  028%=      5-min Rain = 0
KCH1 131840Z 20009KT 37/16 A2998 RMK A01 T03740158  RH  028%=      5-min Rain = 0
KCH1 131841Z 20007KT 37/16 A2997 RMK A01 T03720160  RH  029%=      5-min Rain = 0
KCH1 131842Z 17010KT 37/16 A2997 RMK A01 T03720159  RH  028%=      5-min Rain = 0
KCH1 131843Z 17006KT 37/16 A2997 RMK A01 T03710157  RH  028%=      5-min Rain = 0
KCH1 131844Z 17007KT 37/16 A2997 RMK A01 T03720156  RH  028%=      5-min Rain = 0
KCH1 131845Z 17014KT 38/16 A2997 RMK A01 T03770158  RH  027%=      5-min Rain = 0
KCH1 131846Z 18014G19KT 38/16 A2997 RMK A01 T03790160  RH  028%=      5-min Rain = 0
KCH1 131847Z 18016G21KT 38/16 A2997 RMK A01 T03770161  RH  028%=      5-min Rain = 0
KCH1 131848Z 17014KT 37/16 A2997 RMK A01 T03730163  RH  029%=      5-min Rain = 0
KCH1 131849Z 18011KT 37/16 A2997 RMK A01 T03690162  RH  029%=      5-min Rain = 0
KCH1 131850Z 16010G15KT 37/16 A2997 RMK A01 T03720161  RH  029%=      5-min Rain = 0
KCH1 131851Z 16011KT 37/16 A2997 RMK A01 T03740159  RH  028%=      5-min Rain = 0
KCH1 131852Z 17008KT 37/16 A2997 RMK A01 T03740161  RH  028%=      5-min Rain = 0
KCH1 131853Z 16013G19KT 38/16 A2997 RMK A01 T03780158  RH  027%=      5-min Rain = 0
KCH1 131854Z 17013KT 38/16 A2996 RMK A01 T03810155  RH  026%=      5-min Rain = 0
KCH1 131855Z 18010KT 38/16 A2997 RMK A01 T03790156  RH  027%=      5-min Rain = 0
KCH1 131856Z 19010KT 38/16 A2996 RMK A01 T03780156  RH  027%=      5-min Rain = 0
KCH1 131857Z 17009KT 38/16 A2996 RMK A01 T03770156  RH  027%=      5-min Rain = 0
KCH1 131858Z 16010KT 38/16 A2996 RMK A01 T03780156  RH  027%=      5-min Rain = 0
KCH1 131859Z 17010KT 38/16 A2996 RMK A01 T03800156  RH  027%=      5-min Rain = 0
KCH1 131900Z 19007KT 38/16 A2996 RMK A01 T03760156  RH  027%=      5-min Rain = 0
KCH1 131901Z 19012KT 37/15 A2996 RMK A01 T03740154  RH  027%=      5-min Rain = 0
KCH1 131902Z 19012KT 38/15 A2996 RMK A01 T03770150  RH  026%=      5-min Rain = 0
KCH1 131903Z 18011KT 38/15 A2996 RMK A01 T03780151  RH  026%=      5-min Rain = 0
KCH1 131904Z 16007KT 38/15 A2996 RMK A01 T03770154  RH  027%=      5-min Rain = 0
KCH1 131905Z 15009KT 38/15 A2996 RMK A01 T03780154  RH  027%=      5-min Rain = 0
KCH1 131906Z 17011KT 38/16 A2996 RMK A01 T03780155  RH  027%=      5-min Rain = 0
KCH1 131907Z 20008G13KT 38/16 A2996 RMK A01 T03780157  RH  027%=      5-min Rain = 0
KCH1 131908Z 18011KT 38/16 A2996 RMK A01 T03780157  RH  027%=      5-min Rain = 0
KCH1 131909Z 16011KT 38/16 A2996 RMK A01 T03780159  RH  028%=      5-min Rain = 0
KCH1 131910Z 18005KT 38/16 A2996 RMK A01 T03780162  RH  028%=      5-min Rain = 0
KCH1 131911Z 21008KT 38/16 A2996 RMK A01 T03810161  RH  027%=      5-min Rain = 0
KCH1 131912Z 19004KT 38/16 A2996 RMK A01 T03790160  RH  027%=      5-min Rain = 0
KCH1 131913Z 18009G14KT 38/16 A2996 RMK A01 T03780159  RH  028%=      5-min Rain = 0
KCH1 131914Z 18013G18KT 38/16 A2996 RMK A01 T03790160  RH  028%=      5-min Rain = 0
KCH1 131915Z 21010G15KT 38/16 A2996 RMK A01 T03770162  RH  028%=      5-min Rain = 0
KCH1 131916Z 22009KT 38/16 A2996 RMK A01 T03790162  RH  028%=      5-min Rain = 0
KCH1 131917Z 21012KT 38/16 A2996 RMK A01 T03790160  RH  028%=      5-min Rain = 0
KCH1 131918Z 21011KT 38/16 A2995 RMK A01 T03770159  RH  028%=      5-min Rain = 0
KCH1 131919Z 22009KT 38/16 A2995 RMK A01 T03750160  RH  028%=      5-min Rain = 0
KCH1 131920Z 20013KT 38/16 A2995 RMK A01 T03770160  RH  028%=      5-min Rain = 0
KCH1 131921Z 19007KT 38/16 A2995 RMK A01 T03800160  RH  028%=      5-min Rain = 0
KCH1 131922Z 22011KT 38/16 A2995 RMK A01 T03830162  RH  027%=      5-min Rain = 0
KCH1 131923Z 23009G15KT 38/16 A2995 RMK A01 T03840163  RH  027%=      5-min Rain = 0
KCH1 131924Z 21010G15KT 38/16 A2995 RMK A01 T03840164  RH  027%=      5-min Rain = 0
KCH1 131925Z 22010KT 38/16 A2995 RMK A01 T03840162  RH  027%=      5-min Rain = 0
KCH1 131926Z 17008KT 38/16 A2995 RMK A01 T03800162  RH  028%=      5-min Rain = 0
KCH1 131927Z 18010KT 38/16 A2995 RMK A01 T03810161  RH  027%=      5-min Rain = 0
KCH1 131928Z 21010KT 38/16 A2995 RMK A01 T03840160  RH  027%=      5-min Rain = 0
KCH1 131929Z 22010KT 38/16 A2995 RMK A01 T03840158  RH  027%=      5-min Rain = 0
KCH1 131930Z 20009G14KT 38/16 A2995 RMK A01 T03800159  RH  027%=      5-min Rain = 0
KCH1 131931Z 21010G15KT 38/16 A2995 RMK A01 T03810156  RH  027%=      5-min Rain = 0
KCH1 131932Z 18012KT 38/16 A2995 RMK A01 T03820155  RH  026%=      5-min Rain = 0
KCH1 131933Z 19012KT 38/15 A2995 RMK A01 T03820154  RH  026%=      5-min Rain = 0
KCH1 131934Z 19013G18KT 38/15 A2995 RMK A01 T03800152  RH  026%=      5-min Rain = 0
KCH1 131935Z 20011KT 38/15 A2995 RMK A01 T03820149  RH  025%=      5-min Rain = 0
KCH1 131936Z 21011KT 39/15 A2995 RMK A01 T03860145  RH  024%=      5-min Rain = 0
KCH1 131937Z 18009KT 38/14 A2995 RMK A01 T03840144  RH  024%=      5-min Rain = 0
KCH1 131938Z 21010G15KT 38/14 A2995 RMK A01 T03820143  RH  024%=      5-min Rain = 0
KCH1 131939Z 21008KT 39/15 A2995 RMK A01 T03850150  RH  025%=      5-min Rain = 0
KCH1 131940Z 19006KT 39/15 A2995 RMK A01 T03870153  RH  025%=      5-min Rain = 0
KCH1 131941Z 20008G14KT 39/15 A2995 RMK A01 T03900154  RH  025%=      5-min Rain = 0
KCH1 131942Z 23009KT 39/15 A2995 RMK A01 T03920152  RH  024%=      5-min Rain = 0
KCH1 131943Z 21007KT 39/15 A2995 RMK A01 T03880149  RH  024%=      5-min Rain = 0
KCH1 131944Z 19007G12KT 39/15 A2995 RMK A01 T03870151  RH  025%=      5-min Rain = 0
KCH1 131945Z 20005G10KT 39/15 A2995 RMK A01 T03860152  RH  025%=      5-min Rain = 0
KCH1 131946Z 21011KT 39/15 A2995 RMK A01 T03850152  RH  025%=      5-min Rain = 0
KCH1 131947Z 20006KT 39/15 A2995 RMK A01 T03850150  RH  025%=      5-min Rain = 0
KCH1 131948Z 21007KT 39/15 A2994 RMK A01 T03850149  RH  025%=      5-min Rain = 0
KCH1 131949Z 22007KT 39/15 A2994 RMK A01 T03870147  RH  024%=      5-min Rain = 0
KCH1 131950Z 21012G18KT 39/15 A2994 RMK A01 T03900145  RH  024%=      5-min Rain = 0
KCH1 131951Z 20011G16KT 39/14 A2994 RMK A01 T03880140  RH  023%=      5-min Rain = 0
KCH1 131952Z 19008KT 39/14 A2994 RMK A01 T03870142  RH  024%=      5-min Rain = 0
KCH1 131953Z 19007KT 39/14 A2994 RMK A01 T03850142  RH  024%=      5-min Rain = 0
KCH1 131954Z 19008G13KT 39/14 A2994 RMK A01 T03870140  RH  023%=      5-min Rain = 0
KCH1 131955Z 20011KT 39/14 A2994 RMK A01 T03920136  RH  022%=      5-min Rain = 0
KCH1 131956Z 18012KT 39/13 A2994 RMK A01 T03910131  RH  021%=      5-min Rain = 0
KCH1 131957Z 18012KT 39/13 A2994 RMK A01 T03880130  RH  022%=      5-min Rain = 0
KCH1 131958Z 19008KT 39/14 A2994 RMK A01 T03880136  RH  023%=      5-min Rain = 0
KCH1 131959Z 19009KT 39/14 A2994 RMK A01 T03900138  RH  023%=      5-min Rain = 0
KCH1 132000Z 18009KT 39/14 A2994 RMK A01 T03910138  RH  022%=      5-min Rain = 0
KCH1 132001Z 17009KT 39/14 A2994 RMK A01 T03860139  RH  023%=      5-min Rain = 0
KCH1 132002Z 17008KT 39/14 A2994 RMK A01 T03850140  RH  023%=      5-min Rain = 0
KCH1 132003Z 17011G17KT 39/13 A2993 RMK A01 T03870131  RH  022%=      5-min Rain = 0
KCH1 132004Z 17015KT 39/13 A2993 RMK A01 T03900129  RH  021%=      5-min Rain = 0
KCH1 132005Z 20014KT 39/13 A2993 RMK A01 T03920133  RH  022%=      5-min Rain = 0
KCH1 132006Z 20011KT 39/14 A2994 RMK A01 T03900135  RH  022%=      5-min Rain = 0
KCH1 132007Z 21007KT 39/14 A2994 RMK A01 T03890136  RH  022%=      5-min Rain = 0
KCH1 132008Z 21004KT 39/14 A2993 RMK A01 T03890136  RH  022%=      5-min Rain = 0
KCH1 132009Z 19007KT 39/14 A2993 RMK A01 T03900135  RH  022%=      5-min Rain = 0
KCH1 132010Z 18012KT 39/14 A2993 RMK A01 T03890138  RH  023%=      5-min Rain = 0
KCH1 132011Z 18010KT 39/14 A2993 RMK A01 T03910139  RH  023%=      5-min Rain = 0
KCH1 132012Z 17009KT 39/14 A2993 RMK A01 T03920141  RH  023%=      5-min Rain = 0
KCH1 132013Z 16009KT 40/14 A2993 RMK A01 T03950140  RH  022%=      5-min Rain = 0
KCH1 132014Z 16008KT 40/14 A2993 RMK A01 T03950138  RH  022%=      5-min Rain = 0
KCH1 132015Z 15007KT 40/14 A2993 RMK A01 T03950137  RH  022%=      5-min Rain = 0
KCH1 132016Z 13008KT 40/14 A2993 RMK A01 T03980137  RH  021%=      5-min Rain = 0
KCH1 132017Z 14013G19KT 40/14 A2993 RMK A01 T04020135  RH  021%=      5-min Rain = 0
KCH1 132018Z 15011KT 40/13 A2993 RMK A01 T04010130  RH  020%=      5-min Rain = 0
KCH1 132019Z 17013G18KT 40/13 A2993 RMK A01 T03990130  RH  020%=      5-min Rain = 0
KCH1 132020Z 18017KT 40/13 A2993 RMK A01 T03970129  RH  020%=      5-min Rain = 0
KCH1 132021Z 18013KT 39/13 A2993 RMK A01 T03920131  RH  021%=      5-min Rain = 0
KCH1 132022Z 18012KT 39/13 A2993 RMK A01 T03910131  RH  021%=      5-min Rain = 0
KCH1 132023Z 17010KT 39/13 A2993 RMK A01 T03900132  RH  022%=      5-min Rain = 0
KCH1 132024Z 18009KT 39/13 A2993 RMK A01 T03940133  RH  021%=      5-min Rain = 0
KCH1 132025Z 18012KT 40/13 A2993 RMK A01 T03960133  RH  021%=      5-min Rain = 0
KCH1 132026Z 20012KT 39/13 A2993 RMK A01 T03920132  RH  021%=      5-min Rain = 0
KCH1 132027Z 18010KT 39/13 A2993 RMK A01 T03910131  RH  021%=      5-min Rain = 0
KCH1 132028Z 16011KT 39/13 A2993 RMK A01 T03930129  RH  021%=      5-min Rain = 0
KCH1 132029Z 16012KT 39/13 A2993 RMK A01 T03940126  RH  020%=      5-min Rain = 0
KCH1 132030Z 17010KT 39/12 A2993 RMK A01 T03940118  RH  019%=      5-min Rain = 0
KCH1 132031Z 17010KT 39/12 A2993 RMK A01 T03930118  RH  019%=      5-min Rain = 0
KCH1 132032Z 16006KT 40/12 A2993 RMK A01 T03950121  RH  020%=      5-min Rain = 0
KCH1 132033Z 14007KT 40/13 A2993 RMK A01 T03970125  RH  020%=      5-min Rain = 0
KCH1 132034Z 16006KT 40/13 A2993 RMK A01 T03950126  RH  020%=      5-min Rain = 0
KCH1 132035Z 18008KT 40/13 A2993 RMK A01 T03950128  RH  021%=      5-min Rain = 0
KCH1 132036Z 21011KT 40/13 A2993 RMK A01 T03960127  RH  020%=      5-min Rain = 0
KCH1 132037Z 20007KT 40/13 A2993 RMK A01 T03960126  RH  020%=      5-min Rain = 0
KCH1 132038Z 21004KT 40/13 A2992 RMK A01 T03970126  RH  020%=      5-min Rain = 0
KCH1 132039Z 23008G15KT 40/13 A2992 RMK A01 T04000125  RH  020%=      5-min Rain = 0
KCH1 132040Z 18008G13KT 40/13 A2992 RMK A01 T04000128  RH  020%=      5-min Rain = 0
KCH1 132041Z 16012KT 40/13 A2992 RMK A01 T04010132  RH  020%=      5-min Rain = 0
KCH1 132042Z 17011KT 40/13 A2992 RMK A01 T03970134  RH  021%=      5-min Rain = 0
KCH1 132043Z 18012KT 40/13 A2992 RMK A01 T03960131  RH  021%=      5-min Rain = 0
KCH1 132044Z 19012KT 40/13 A2992 RMK A01 T03970127  RH  020%=      5-min Rain = 0
KCH1 132045Z 21009KT 40/12 A2992 RMK A01 T03950122  RH  020%=      5-min Rain = 0
KCH1 132046Z 19006KT 39/12 A2992 RMK A01 T03940121  RH  020%=      5-min Rain = 0
KCH1 132047Z 17007G13KT 39/12 A2992 RMK A01 T03940123  RH  020%=      5-min Rain = 0
KCH1 132048Z 19008G13KT 39/13 A2992 RMK A01 T03930129  RH  021%=      5-min Rain = 0
KCH1 132049Z 20003KT 39/13 A2992 RMK A01 T03930129  RH  021%=      5-min Rain = 0
KCH1 132050Z 20003KT 39/13 A2992 RMK A01 T03920130  RH  021%=      5-min Rain = 0
KCH1 132051Z 21006G12KT 40/13 A2992 RMK A01 T03950130  RH  021%=      5-min Rain = 0
KCH1 132052Z 19011KT 40/13 A2992 RMK A01 T03980130  RH  020%=      5-min Rain = 0
KCH1 132053Z 17010KT 40/13 A2992 RMK A01 T03980130  RH  021%=      5-min Rain = 0
KCH1 132054Z 19008KT 40/13 A2992 RMK A01 T03980129  RH  020%=      5-min Rain = 0
KCH1 132055Z 18012G17KT 40/13 A2992 RMK A01 T03990128  RH  020%=      5-min Rain = 0
KCH1 132056Z 17013KT 40/13 A2992 RMK A01 T04000125  RH  020%=      5-min Rain = 0
KCH1 132057Z 15010KT 40/12 A2992 RMK A01 T03980120  RH  019%=      5-min Rain = 0
KCH1 132058Z 16009KT 40/12 A2992 RMK A01 T03970121  RH  019%=      5-min Rain = 0
KCH1 132059Z 16009KT 40/13 A2992 RMK A01 T03980126  RH  020%=      5-min Rain = 0
KCH1 132100Z 16008KT 40/13 A2991 RMK A01 T03980130  RH  020%=      5-min Rain = 0
KCH1 132101Z 16009KT 40/13 A2991 RMK A01 T03980132  RH  021%=      5-min Rain = 0
KCH1 132102Z 21010KT 40/13 A2992 RMK A01 T04020129  RH  020%=      5-min Rain = 0
KCH1 132103Z 22008KT 40/13 A2992 RMK A01 T04030129  RH  020%=      5-min Rain = 0
KCH1 132104Z 20007KT 40/13 A2992 RMK A01 T04030129  RH  020%=      5-min Rain = 0
KCH1 132105Z 19007KT 40/13 A2991 RMK A01 T04020128  RH  020%=      5-min Rain = 0
KCH1 132106Z 20005KT 40/13 A2991 RMK A01 T03990130  RH  020%=      5-min Rain = 0
KCH1 132107Z 22007G17KT 40/13 A2991 RMK A01 T03990128  RH  020%=      5-min Rain = 0
KCH1 132108Z 17010G15KT 40/13 A2991 RMK A01 T04000127  RH  020%=      5-min Rain = 0
KCH1 132109Z 18010KT 40/13 A2991 RMK A01 T04020125  RH  019%=      5-min Rain = 0
KCH1 132110Z 19011KT 40/12 A2991 RMK A01 T04030123  RH  019%=      5-min Rain = 0
KCH1 132111Z 19012KT 40/12 A2991 RMK A01 T04020122  RH  019%=      5-min Rain = 0
KCH1 132112Z 20010KT 40/12 A2991 RMK A01 T04000122  RH  019%=      5-min Rain = 0
KCH1 132113Z 18010KT 40/12 A2991 RMK A01 T03980117  RH  019%=      5-min Rain = 0
KCH1 132114Z 20008KT 40/12 A2991 RMK A01 T03970118  RH  019%=      5-min Rain = 0
KCH1 132115Z 18007KT 40/11 A2991 RMK A01 T03970113  RH  018%=      5-min Rain = 0
KCH1 132116Z 20007KT 40/12 A2991 RMK A01 T03980115  RH  019%=      5-min Rain = 0
KCH1 132117Z 18007KT 40/12 A2991 RMK A01 T03990117  RH  019%=      5-min Rain = 0
KCH1 132118Z 17010KT 40/12 A2991 RMK A01 T04010121  RH  019%=      5-min Rain = 0
KCH1 132119Z 18005KT 40/13 A2991 RMK A01 T03990125  RH  020%=      5-min Rain = 0
KCH1 132120Z 16004KT 40/13 A2991 RMK A01 T03950125  RH  020%=      5-min Rain = 0
KCH1 132121Z 19006KT 40/13 A2991 RMK A01 T03950125  RH  020%=      5-min Rain = 0
KCH1 132122Z 20007KT 40/13 A2991 RMK A01 T03950125  RH  020%=      5-min Rain = 0
KCH1 132123Z 17013KT 40/12 A2991 RMK A01 T03980124  RH  020%=      5-min Rain = 0
KCH1 132124Z 16012KT 40/12 A2991 RMK A01 T03990120  RH  019%=      5-min Rain = 0
KCH1 132125Z 17008KT 40/12 A2991 RMK A01 T03990119  RH  019%=      5-min Rain = 0
KCH1 132126Z 16009KT 40/12 A2991 RMK A01 T04010119  RH  019%=      5-min Rain = 0
KCH1 132127Z 16010KT 40/12 A2991 RMK A01 T04040117  RH  018%=      5-min Rain = 0
KCH1 132128Z 17011G16KT 41/12 A2991 RMK A01 T04050116  RH  018%=      5-min Rain = 0
KCH1 132129Z 21008KT 41/12 A2991 RMK A01 T04060119  RH  018%=      5-min Rain = 0
KCH1 132130Z 21007KT 41/12 A2991 RMK A01 T04050119  RH  018%=      5-min Rain = 0
KCH1 132131Z 17009KT 40/12 A2991 RMK A01 T04030118  RH  019%=      5-min Rain = 0
KCH1 132132Z 16011KT 40/12 A2991 RMK A01 T04010116  RH  018%=      5-min Rain = 0
KCH1 132133Z 17010KT 40/12 A2991 RMK A01 T04020115  RH  018%=      5-min Rain = 0
KCH1 132134Z 17014KT 40/11 A2991 RMK A01 T04040109  RH  017%=      5-min Rain = 0
KCH1 132135Z 16013KT 40/10 A2991 RMK A01 T04020103  RH  017%=      5-min Rain = 0
KCH1 132136Z 16013KT 40/10 A2991 RMK A01 T04010102  RH  017%=      5-min Rain = 0
KCH1 132137Z 15012KT 40/11 A2991 RMK A01 T04000106  RH  017%=      5-min Rain = 0
KCH1 132138Z 15010KT 40/11 A2991 RMK A01 T03990107  RH  018%=      5-min Rain = 0
KCH1 132139Z 14012KT 40/11 A2991 RMK A01 T03990108  RH  018%=      5-min Rain = 0
KCH1 132140Z 14013KT 40/11 A2991 RMK A01 T04010109  RH  018%=      5-min Rain = 0
KCH1 132141Z 14011KT 40/11 A2991 RMK A01 T04010109  RH  018%=      5-min Rain = 0
KCH1 132142Z 16010KT 40/11 A2991 RMK A01 T04020111  RH  018%=      5-min Rain = 0
KCH1 132143Z 17008KT 40/11 A2991 RMK A01 T04030111  RH  018%=      5-min Rain = 0
KCH1 132144Z 15009KT 40/11 A2991 RMK A01 T04010114  RH  018%=      5-min Rain = 0
KCH1 132145Z 13008KT 40/11 A2991 RMK A01 T04000113  RH  018%=      5-min Rain = 0
KCH1 132146Z 12008KT 40/11 A2991 RMK A01 T04000113  RH  018%=      5-min Rain = 0
KCH1 132147Z 12011KT 40/11 A2991 RMK A01 T04000114  RH  018%=      5-min Rain = 0
KCH1 132148Z 14012KT 40/12 A2991 RMK A01 T04010115  RH  018%=      5-min Rain = 0
KCH1 132149Z 14012KT 40/12 A2991 RMK A01 T04040117  RH  018%=      5-min Rain = 0
KCH1 132150Z 14016KT 41/12 A2991 RMK A01 T04070117  RH  018%=      5-min Rain = 0
KCH1 132151Z 16012KT 40/12 A2991 RMK A01 T04040117  RH  018%=      5-min Rain = 0
KCH1 132152Z 18010KT 40/12 A2991 RMK A01 T04020117  RH  018%=      5-min Rain = 0
KCH1 132153Z 18010KT 40/12 A2991 RMK A01 T03980118  RH  019%=      5-min Rain = 0
KCH1 132154Z 18006KT 40/12 A2991 RMK A01 T03980119  RH  019%=      5-min Rain = 0
KCH1 132155Z 16009KT 40/12 A2991 RMK A01 T04010118  RH  019%=      5-min Rain = 0
KCH1 132156Z 17009KT 40/12 A2991 RMK A01 T04020119  RH  019%=      5-min Rain = 0
KCH1 132157Z 18006KT 40/12 A2991 RMK A01 T03990120  RH  019%=      5-min Rain = 0
KCH1 132158Z 16008KT 40/12 A2991 RMK A01 T03990121  RH  019%=      5-min Rain = 0
KCH1 132159Z 17009KT 40/12 A2991 RMK A01 T04010122  RH  019%=      5-min Rain = 0
KCH1 132200Z 16011KT 40/12 A2991 RMK A01 T04040121  RH  019%=      5-min Rain = 0
KCH1 132201Z 16009KT 41/12 A2991 RMK A01 T04050116  RH  018%=      5-min Rain = 0
KCH1 132202Z 15009KT 40/12 A2991 RMK A01 T04020115  RH  018%=      5-min Rain = 0
KCH1 132203Z 15012KT 40/11 A2991 RMK A01 T04010113  RH  018%=      5-min Rain = 0
KCH1 132204Z 16010KT 40/11 A299 RMK A01 T04010111  RH  018%=      5-min Rain = 0
KCH1 132205Z 17010KT 40/11 A299 RMK A01 T04000111  RH  018%=      5-min Rain = 0
KCH1 132206Z 16012KT 40/11 A299 RMK A01 T04000111  RH  018%=      5-min Rain = 0
KCH1 132207Z 16010KT 40/11 A299 RMK A01 T04010112  RH  018%=      5-min Rain = 0
KCH1 132208Z 15007KT 40/11 A299 RMK A01 T04000112  RH  018%=      5-min Rain = 0
KCH1 132209Z 15011KT 40/11 A299 RMK A01 T04040111  RH  018%=      5-min Rain = 0
KCH1 132210Z 15011KT 40/11 A299 RMK A01 T04040109  RH  017%=      5-min Rain = 0
KCH1 132211Z 17010KT 41/11 A299 RMK A01 T04050110  RH  017%=      5-min Rain = 0
KCH1 132212Z 17006KT 41/11 A299 RMK A01 T04060111  RH  017%=      5-min Rain = 0
KCH1 132213Z 21003KT 41/12 A299 RMK A01 T04050115  RH  018%=      5-min Rain = 0
KCH1 132214Z 16006KT 41/12 A299 RMK A01 T04050116  RH  018%=      5-min Rain = 0
KCH1 132215Z 14010KT 41/11 A299 RMK A01 T04060110  RH  017%=      5-min Rain = 0
KCH1 132216Z 14012KT 41/11 A299 RMK A01 T04080111  RH  017%=      5-min Rain = 0
KCH1 132217Z 15010KT 41/11 A299 RMK A01 T04070112  RH  017%=      5-min Rain = 0
KCH1 132218Z 18007KT 41/11 A299 RMK A01 T04060114  RH  018%=      5-min Rain = 0
KCH1 132219Z 17011KT 41/12 A299 RMK A01 T04050115  RH  018%=      5-min Rain = 0
KCH1 132220Z 17012KT 40/12 A299 RMK A01 T04020116  RH  018%=      5-min Rain = 0
KCH1 132221Z 16011G18KT 40/12 A299 RMK A01 T04000116  RH  019%=      5-min Rain = 0
KCH1 132222Z 15012KT 40/12 A299 RMK A01 T04000117  RH  019%=      5-min Rain = 0
KCH1 132223Z 15012KT 40/12 A299 RMK A01 T04010117  RH  019%=      5-min Rain = 0
KCH1 132224Z 16007KT 40/12 A299 RMK A01 T04000119  RH  019%=      5-min Rain = 0
KCH1 132225Z 17007KT 40/12 A299 RMK A01 T04040120  RH  019%=      5-min Rain = 0
KCH1 132226Z 16007G12KT 41/12 A299 RMK A01 T04070119  RH  018%=      5-min Rain = 0
KCH1 132227Z 15008KT 41/12 A299 RMK A01 T04080117  RH  018%=      5-min Rain = 0
KCH1 132228Z 18007KT 41/12 A299 RMK A01 T04080116  RH  018%=      5-min Rain = 0
KCH1 132229Z 16011KT 41/12 A299 RMK A01 T04080116  RH  018%=      5-min Rain = 0
KCH1 132230Z 17013KT 41/12 A299 RMK A01 T04060115  RH  018%=      5-min Rain = 0
KCH1 132231Z 16011KT 40/11 A299 RMK A01 T04040114  RH  018%=      5-min Rain = 0
KCH1 132232Z 14012KT 40/12 A299 RMK A01 T04030117  RH  018%=      5-min Rain = 0
KCH1 132233Z 13010KT 40/12 A299 RMK A01 T04020118  RH  019%=      5-min Rain = 0
KCH1 132234Z 12011KT 40/12 A299 RMK A01 T04030120  RH  019%=      5-min Rain = 0
KCH1 132235Z 16012KT 40/12 A299 RMK A01 T04040120  RH  019%=      5-min Rain = 0
KCH1 132236Z 18010KT 40/12 A299 RMK A01 T04030119  RH  019%=      5-min Rain = 0
KCH1 132237Z 17010G17KT 40/12 A299 RMK A01 T04030120  RH  019%=      5-min Rain = 0
KCH1 132238Z 16013KT 40/12 A299 RMK A01 T04040119  RH  019%=      5-min Rain = 0
KCH1 132239Z 17008KT 40/12 A299 RMK A01 T04030119  RH  019%=      5-min Rain = 0
KCH1 132240Z 17007KT 40/12 A299 RMK A01 T04040117  RH  018%=      5-min Rain = 0
KCH1 132241Z 18012KT 41/12 A299 RMK A01 T04050115  RH  018%=      5-min Rain = 0
KCH1 132242Z 16009KT 40/11 A299 RMK A01 T04040112  RH  018%=      5-min Rain = 0
KCH1 132243Z 14010KT 40/12 A299 RMK A01 T04040115  RH  018%=      5-min Rain = 0
KCH1 132244Z 15010KT 41/11 A299 RMK A01 T04050111  RH  017%=      5-min Rain = 0
KCH1 132245Z 15010KT 40/11 A299 RMK A01 T04020111  RH  018%=      5-min Rain = 0
KCH1 132246Z 18007KT 40/11 A299 RMK A01 T04020112  RH  018%=      5-min Rain = 0
KCH1 132247Z 18010KT 40/11 A299 RMK A01 T04040107  RH  017%=      5-min Rain = 0
KCH1 132248Z 19009KT 40/11 A299 RMK A01 T04010106  RH  017%=      5-min Rain = 0
KCH1 132249Z 20006KT 40/11 A2989 RMK A01 T03990106  RH  017%=      5-min Rain = 0
KCH1 132250Z 19004KT 40/11 A2989 RMK A01 T03980107  RH  018%=      5-min Rain = 0
KCH1 132251Z 18005KT 40/11 A2989 RMK A01 T03990108  RH  018%=      5-min Rain = 0
KCH1 132252Z 16008KT 40/11 A2989 RMK A01 T04020111  RH  018%=      5-min Rain = 0
KCH1 132253Z 18006KT 40/11 A2989 RMK A01 T04040114  RH  018%=      5-min Rain = 0
KCH1 132254Z 19007G13KT 40/11 A2989 RMK A01 T04040114  RH  018%=      5-min Rain = 0
KCH1 132255Z 19009KT 40/11 A2989 RMK A01 T04020114  RH  018%=      5-min Rain = 0
KCH1 132256Z 19004KT 40/11 A2989 RMK A01 T03990113  RH  018%=      5-min Rain = 0
KCH1 132257Z 16005KT 40/11 A2989 RMK A01 T03980114  RH  018%=      5-min Rain = 0
KCH1 132258Z 19006KT 40/11 A2989 RMK A01 T04010114  RH  018%=      5-min Rain = 0
KCH1 132259Z 16008KT 40/11 A2989 RMK A01 T04020114  RH  018%=      5-min Rain = 0
KCH1 132300Z 16006KT 40/11 A2989 RMK A01 T04020114  RH  018%=      5-min Rain = 0
KCH1 132301Z 18007KT 40/11 A2989 RMK A01 T04020114  RH  018%=      5-min Rain = 0
KCH1 132302Z 18006KT 40/12 A2989 RMK A01 T04020115  RH  018%=      5-min Rain = 0
KCH1 132303Z 18007KT 40/12 A2989 RMK A01 T04030115  RH  018%=      5-min Rain = 0
KCH1 132304Z 17009KT 40/12 A2989 RMK A01 T04030116  RH  018%=      5-min Rain = 0
KCH1 132305Z 17010KT 40/11 A2989 RMK A01 T04010114  RH  018%=      5-min Rain = 0
KCH1 132306Z 15012KT 40/11 A2989 RMK A01 T04000114  RH  018%=      5-min Rain = 0
KCH1 132307Z 16011KT 40/11 A2989 RMK A01 T03990114  RH  018%=      5-min Rain = 0
KCH1 132308Z 16013G18KT 40/11 A2989 RMK A01 T04000114  RH  018%=      5-min Rain = 0
KCH1 132309Z 17014KT 40/11 A2989 RMK A01 T04000113  RH  018%=      5-min Rain = 0
KCH1 132310Z 17009KT 40/11 A2989 RMK A01 T03980112  RH  018%=      5-min Rain = 0
KCH1 132311Z 16010KT 40/11 A2989 RMK A01 T03970113  RH  018%=      5-min Rain = 0
KCH1 132312Z 16011KT 40/11 A2989 RMK A01 T03980112  RH  018%=      5-min Rain = 0
KCH1 132313Z 15013KT 40/11 A2989 RMK A01 T03970113  RH  018%=      5-min Rain = 0
KCH1 132314Z 16015KT 40/11 A2989 RMK A01 T03970113  RH  018%=      5-min Rain = 0
KCH1 132315Z 17015KT 40/11 A2989 RMK A01 T03980112  RH  018%=      5-min Rain = 0
KCH1 132316Z 18012KT 40/11 A2989 RMK A01 T03970111  RH  018%=      5-min Rain = 0
KCH1 132317Z 19012KT 40/11 A2989 RMK A01 T03960111  RH  018%=      5-min Rain = 0
KCH1 132318Z 19012KT 40/11 A2989 RMK A01 T03960110  RH  018%=      5-min Rain = 0
KCH1 132319Z 17009KT 40/11 A2989 RMK A01 T03960110  RH  018%=      5-min Rain = 0
KCH1 132320Z 16012KT 40/11 A2989 RMK A01 T03960111  RH  018%=      5-min Rain = 0
KCH1 132321Z 17012KT 40/11 A2989 RMK A01 T03970112  RH  018%=      5-min Rain = 0
KCH1 132322Z 16008KT 40/11 A2989 RMK A01 T03970112  RH  018%=      5-min Rain = 0
KCH1 132323Z 17008KT 40/11 A2989 RMK A01 T03970113  RH  018%=      5-min Rain = 0
KCH1 132324Z 18007KT 40/11 A2989 RMK A01 T03990113  RH  018%=      5-min Rain = 0
KCH1 132325Z 19006KT 40/11 A2989 RMK A01 T03990111  RH  018%=      5-min Rain = 0
KCH1 132326Z 17004KT 40/11 A2989 RMK A01 T03980109  RH  018%=      5-min Rain = 0
KCH1 132327Z 15004KT 40/11 A2989 RMK A01 T03970111  RH  018%=      5-min Rain = 0
KCH1 132328Z 17006KT 40/11 A2989 RMK A01 T03970112  RH  018%=      5-min Rain = 0
KCH1 132329Z 16009KT 40/11 A2989 RMK A01 T03990114  RH  018%=      5-min Rain = 0
KCH1 132330Z 15008KT 40/12 A2989 RMK A01 T04010115  RH  018%=      5-min Rain = 0
KCH1 132331Z 16010KT 40/12 A2989 RMK A01 T04000115  RH  018%=      5-min Rain = 0
KCH1 132332Z 15009KT 40/12 A2989 RMK A01 T03990115  RH  018%=      5-min Rain = 0
KCH1 132333Z 14009KT 40/11 A2989 RMK A01 T03990114  RH  018%=      5-min Rain = 0
KCH1 132334Z 15012G17KT 40/11 A2989 RMK A01 T03990113  RH  018%=      5-min Rain = 0
KCH1 132335Z 15012KT 40/11 A2989 RMK A01 T03990111  RH  018%=      5-min Rain = 0
KCH1 132336Z 17010KT 40/11 A2989 RMK A01 T03980110  RH  018%=      5-min Rain = 0
KCH1 132337Z 15009KT 40/11 A2989 RMK A01 T03970111  RH  018%=      5-min Rain = 0
KCH1 132338Z 15008KT 40/11 A2989 RMK A01 T03970111  RH  018%=      5-min Rain = 0
KCH1 132339Z 15009KT 40/11 A2989 RMK A01 T03970113  RH  018%=      5-min Rain = 0
KCH1 132340Z 15010KT 40/12 A2989 RMK A01 T03960115  RH  019%=      5-min Rain = 0
KCH1 132341Z 16009KT 40/12 A2989 RMK A01 T03960115  RH  019%=      5-min Rain = 0
KCH1 132342Z 16007KT 40/12 A2989 RMK A01 T03960117  RH  019%=      5-min Rain = 0
KCH1 132343Z 17007KT 40/12 A2989 RMK A01 T03980118  RH  019%=      5-min Rain = 0
KCH1 132344Z 15008KT 40/12 A2988 RMK A01 T03980118  RH  019%=      5-min Rain = 0
KCH1 132345Z 18007KT 40/12 A2988 RMK A01 T03980118  RH  019%=      5-min Rain = 0
KCH1 132346Z 18010KT 40/12 A2989 RMK A01 T03990118  RH  019%=      5-min Rain = 0
KCH1 132347Z 18011KT 40/12 A2988 RMK A01 T03980117  RH  019%=      5-min Rain = 0
KCH1 132348Z 17010KT 40/12 A2988 RMK A01 T03960116  RH  019%=      5-min Rain = 0
KCH1 132349Z 18009KT 40/12 A2988 RMK A01 T03950116  RH  019%=      5-min Rain = 0
KCH1 132350Z 17008KT 39/12 A2988 RMK A01 T03940116  RH  019%=      5-min Rain = 0
KCH1 132351Z 19009KT 39/12 A2988 RMK A01 T03940116  RH  019%=      5-min Rain = 0
KCH1 132352Z 20010KT 39/12 A2988 RMK A01 T03940116  RH  019%=      5-min Rain = 0
KCH1 132353Z 19009KT 39/12 A2988 RMK A01 T03930117  RH  019%=      5-min Rain = 0
KCH1 132354Z 20010KT 39/12 A2988 RMK A01 T03930116  RH  019%=      5-min Rain = 0
KCH1 132355Z 17011KT 39/12 A2988 RMK A01 T03930116  RH  019%=      5-min Rain = 0
KCH1 132356Z 17008KT 39/12 A2988 RMK A01 T03940116  RH  019%=      5-min Rain = 0
KCH1 132357Z 16009KT 39/12 A2988 RMK A01 T03930115  RH  019%=      5-min Rain = 0
KCH1 132358Z 15010KT 39/12 A2988 RMK A01 T03940117  RH  019%=      5-min Rain = 0
KCH1 132359Z 15010G15KT 39/12 A2988 RMK A01 T03940117  RH  019%=      5-min Rain = 0
KCH1 140000Z 17010KT 39/12 A2988 RMK A01 T03930116  RH  019%=      5-min Rain = 0
KCH1 140001Z 16008KT 39/12 A2988 RMK A01 T03920115  RH  019%=      5-min Rain = 0
KCH1 140002Z 16007KT 39/12 A2988 RMK A01 T03910115  RH  019%=      5-min Rain = 0
KCH1 140003Z 16005KT 39/11 A2988 RMK A01 T03900114  RH  019%=      5-min Rain = 0
KCH1 140004Z 21006KT 39/12 A2988 RMK A01 T03910116  RH  019%=      5-min Rain = 0
KCH1 140005Z 20008G13KT 39/12 A2988 RMK A01 T03920117  RH  019%=      5-min Rain = 0
KCH1 140006Z 19009KT 39/12 A2988 RMK A01 T03930117  RH  019%=      5-min Rain = 0
KCH1 140007Z 18008KT 39/12 A2988 RMK A01 T03930116  RH  019%=      5-min Rain = 0
KCH1 140008Z 18010KT 39/12 A2988 RMK A01 T03930116  RH  019%=      5-min Rain = 0
KCH1 140009Z 18009KT 39/12 A2988 RMK A01 T03930116  RH  019%=      5-min Rain = 0
KCH1 140010Z 19006KT 39/12 A2988 RMK A01 T03920116  RH  019%=      5-min Rain = 0
KCH1 140011Z 19007KT 39/12 A2988 RMK A01 T03920117  RH  019%=      5-min Rain = 0
KCH1 140012Z 19008KT 39/12 A2988 RMK A01 T03920117  RH  019%=      5-min Rain = 0
KCH1 140013Z 19008KT 39/12 A2988 RMK A01 T03920117  RH  019%=      5-min Rain = 0
KCH1 140014Z 18011KT 39/12 A2988 RMK A01 T03920118  RH  019%=      5-min Rain = 0
KCH1 140015Z 17011KT 39/12 A2988 RMK A01 T03910117  RH  020%=      5-min Rain = 0
KCH1 140016Z 17008KT 39/12 A2988 RMK A01 T03900117  RH  020%=      5-min Rain = 0
KCH1 140017Z 17011KT 39/12 A2988 RMK A01 T03900117  RH  020%=      5-min Rain = 0
KCH1 140018Z 17010KT 39/12 A2988 RMK A01 T03900117  RH  020%=      5-min Rain = 0
KCH1 140019Z 18008KT 39/12 A2988 RMK A01 T03900116  RH  020%=      5-min Rain = 0
KCH1 140020Z 18008KT 39/12 A2988 RMK A01 T03890116  RH  020%=      5-min Rain = 0
KCH1 140021Z 18009KT 39/12 A2988 RMK A01 T03890116  RH  020%=      5-min Rain = 0
KCH1 140022Z 18010KT 39/12 A2988 RMK A01 T03900116  RH  020%=      5-min Rain = 0
KCH1 140023Z 18007KT 39/12 A2988 RMK A01 T03890116  RH  020%=      5-min Rain = 0
KCH1 140024Z 17009KT 39/12 A2988 RMK A01 T03890117  RH  020%=      5-min Rain = 0
KCH1 140025Z 16008KT 39/12 A2988 RMK A01 T03890118  RH  020%=      5-min Rain = 0
KCH1 140026Z 16008KT 39/12 A2988 RMK A01 T03880118  RH  020%=      5-min Rain = 0
KCH1 140027Z 18010KT 39/12 A2988 RMK A01 T03890118  RH  020%=      5-min Rain = 0
KCH1 140028Z 19010KT 39/12 A2988 RMK A01 T03880117  RH  020%=      5-min Rain = 0
KCH1 140029Z 18006KT 39/12 A2988 RMK A01 T03870117  RH  020%=      5-min Rain = 0
KCH1 140030Z 17007G12KT 39/12 A2988 RMK A01 T03870118  RH  020%=      5-min Rain = 0
KCH1 140031Z 17011KT 39/12 A2988 RMK A01 T03870117  RH  020%=      5-min Rain = 0
KCH1 140032Z 17009KT 39/12 A2988 RMK A01 T03870117  RH  020%=      5-min Rain = 0
KCH1 140033Z 17010KT 39/12 A2988 RMK A01 T03860117  RH  020%=      5-min Rain = 0
KCH1 140034Z 18008KT 39/12 A2988 RMK A01 T03860117  RH  020%=      5-min Rain = 0
KCH1 140035Z 18007KT 39/12 A2988 RMK A01 T03860118  RH  020%=      5-min Rain = 0
KCH1 140036Z 18008KT 39/12 A2988 RMK A01 T03850118  RH  020%=      5-min Rain = 0
KCH1 140037Z 17006G11KT 39/12 A2988 RMK A01 T03850118  RH  020%=      5-min Rain = 0
KCH1 140038Z 16009KT 39/12 A2988 RMK A01 T03850118  RH  020%=      5-min Rain = 0
KCH1 140039Z 18008KT 39/12 A2988 RMK A01 T03850118  RH  020%=      5-min Rain = 0
KCH1 140040Z 18008KT 39/12 A2988 RMK A01 T03850118  RH  020%=      5-min Rain = 0
KCH1 140041Z 17007KT 38/12 A2988 RMK A01 T03840118  RH  020%=      5-min Rain = 0
KCH1 140042Z 17008KT 38/12 A2988 RMK A01 T03840118  RH  020%=      5-min Rain = 0
KCH1 140043Z 17008KT 38/12 A2988 RMK A01 T03830117  RH  020%=      5-min Rain = 0
KCH1 140044Z 17009KT 38/12 A2988 RMK A01 T03830117  RH  020%=      5-min Rain = 0
KCH1 140045Z 18008KT 38/12 A2988 RMK A01 T03830118  RH  021%=      5-min Rain = 0
KCH1 140046Z 18006KT 38/12 A2988 RMK A01 T03820118  RH  021%=      5-min Rain = 0
KCH1 140047Z 17006KT 38/12 A2988 RMK A01 T03820118  RH  021%=      5-min Rain = 0
KCH1 140048Z 17007KT 38/12 A2988 RMK A01 T03820118  RH  021%=      5-min Rain = 0
KCH1 140049Z 17006KT 38/12 A2988 RMK A01 T03810118  RH  021%=      5-min Rain = 0
KCH1 140050Z 18007KT 38/12 A2988 RMK A01 T03810118  RH  021%=      5-min Rain = 0
KCH1 140051Z 18007KT 38/12 A2988 RMK A01 T03800118  RH  021%=      5-min Rain = 0
KCH1 140052Z 18008KT 38/12 A2988 RMK A01 T03800118  RH  021%=      5-min Rain = 0
KCH1 140053Z 17008KT 38/12 A2989 RMK A01 T03800118  RH  021%=      5-min Rain = 0
KCH1 140054Z 18007KT 38/12 A2989 RMK A01 T03800118  RH  021%=      5-min Rain = 0
KCH1 140055Z 17006KT 38/12 A2989 RMK A01 T03790118  RH  021%=      5-min Rain = 0
KCH1 140056Z 17006KT 38/12 A2989 RMK A01 T03790119  RH  021%=      5-min Rain = 0
KCH1 140057Z 18007KT 38/12 A2989 RMK A01 T03780119  RH  021%=      5-min Rain = 0
KCH1 140058Z 18006KT 38/12 A2989 RMK A01 T03780119  RH  021%=      5-min Rain = 0
KCH1 140059Z 17005KT 38/12 A2989 RMK A01 T03770119  RH  021%=      5-min Rain = 0
KCH1 140100Z 17006KT 38/12 A2989 RMK A01 T03770119  RH  021%=      5-min Rain = 0
KCH1 140101Z 17006KT 38/12 A2989 RMK A01 T03760120  RH  022%=      5-min Rain = 0
KCH1 140102Z 18006KT 38/12 A2989 RMK A01 T03750120  RH  022%=      5-min Rain = 0
KCH1 140103Z 17008KT 38/12 A2989 RMK A01 T03750120  RH  022%=      5-min Rain = 0
KCH1 140104Z 17007KT 38/12 A2989 RMK A01 T03750120  RH  022%=      5-min Rain = 0
KCH1 140105Z 17007KT 38/12 A2989 RMK A01 T03750120  RH  022%=      5-min Rain = 0
KCH1 140106Z 17005KT 37/12 A2989 RMK A01 T03740120  RH  022%=      5-min Rain = 0
KCH1 140107Z 18006KT 37/12 A2989 RMK A01 T03740120  RH  022%=      5-min Rain = 0
KCH1 140108Z 17005KT 37/12 A2989 RMK A01 T03730121  RH  022%=      5-min Rain = 0
KCH1 140109Z 17007KT 37/12 A2989 RMK A01 T03730121  RH  022%=      5-min Rain = 0
KCH1 140110Z 18008KT 37/12 A2989 RMK A01 T03720121  RH  022%=      5-min Rain = 0
KCH1 140111Z 17007KT 37/12 A2989 RMK A01 T03720121  RH  022%=      5-min Rain = 0
KCH1 140112Z 17005KT 37/12 A2989 RMK A01 T03720121  RH  022%=      5-min Rain = 0
KCH1 140113Z 17005KT 37/12 A2989 RMK A01 T03720121  RH  022%=      5-min Rain = 0
KCH1 140114Z 17005KT 37/12 A299 RMK A01 T03700121  RH  022%=      5-min Rain = 0
KCH1 140115Z 17005KT 37/12 A299 RMK A01 T03700122  RH  023%=      5-min Rain = 0
KCH1 140116Z 17006KT 37/12 A299 RMK A01 T03690121  RH  023%=      5-min Rain = 0
KCH1 140117Z 17006KT 37/12 A299 RMK A01 T03690121  RH  023%=      5-min Rain = 0
KCH1 140118Z 17005KT 37/12 A299 RMK A01 T03680121  RH  023%=      5-min Rain = 0
KCH1 140119Z 17006KT 37/12 A299 RMK A01 T03680121  RH  023%=      5-min Rain = 0
KCH1 140120Z 18006KT 37/12 A299 RMK A01 T03670121  RH  023%=      5-min Rain = 0
KCH1 140121Z 17007KT 37/12 A299 RMK A01 T03670121  RH  023%=      5-min Rain = 0
KCH1 140122Z 17007KT 37/12 A299 RMK A01 T03660121  RH  023%=      5-min Rain = 0
KCH1 140123Z 17006KT 37/12 A299 RMK A01 T03660120  RH  023%=      5-min Rain = 0
KCH1 140124Z 17007KT 37/12 A299 RMK A01 T03670120  RH  023%=      5-min Rain = 0
KCH1 140125Z 17007KT 37/12 A299 RMK A01 T03660120  RH  023%=      5-min Rain = 0
KCH1 140126Z 17007KT 37/12 A299 RMK A01 T03660120  RH  023%=      5-min Rain = 0
KCH1 140127Z 17006KT 37/12 A299 RMK A01 T03660121  RH  023%=      5-min Rain = 0
KCH1 140128Z 17006KT 37/12 A299 RMK A01 T03650120  RH  023%=      5-min Rain = 0
KCH1 140129Z 17006KT 36/12 A299 RMK A01 T03640121  RH  023%=      5-min Rain = 0
KCH1 140130Z 17005KT 36/12 A299 RMK A01 T03640121  RH  023%=      5-min Rain = 0
KCH1 140131Z 17006KT 36/12 A299 RMK A01 T03630121  RH  023%=      5-min Rain = 0
KCH1 140132Z 17006KT 36/12 A299 RMK A01 T03630121  RH  023%=      5-min Rain = 0
KCH1 140133Z 17005KT 36/12 A299 RMK A01 T03620121  RH  023%=      5-min Rain = 0
KCH1 140134Z 17007KT 36/12 A299 RMK A01 T03620121  RH  024%=      5-min Rain = 0
KCH1 140135Z 17006KT 36/12 A299 RMK A01 T03610121  RH  024%=      5-min Rain = 0
KCH1 140136Z 17006KT 36/12 A299 RMK A01 T03610121  RH  024%=      5-min Rain = 0
KCH1 140137Z 17006KT 36/12 A299 RMK A01 T03610121  RH  024%=      5-min Rain = 0
KCH1 140138Z 18005KT 36/12 A299 RMK A01 T03600121  RH  024%=      5-min Rain = 0
KCH1 140139Z 17005KT 36/12 A299 RMK A01 T03600121  RH  024%=      5-min Rain = 0
KCH1 140140Z 17005KT 36/12 A299 RMK A01 T03590122  RH  024%=      5-min Rain = 0
KCH1 140141Z 17005KT 36/12 A299 RMK A01 T03580121  RH  024%=      5-min Rain = 0
KCH1 140142Z 18004KT 36/12 A299 RMK A01 T03570121  RH  024%=      5-min Rain = 0
KCH1 140143Z 17004KT 36/12 A299 RMK A01 T03560121  RH  024%=      5-min Rain = 0
KCH1 140144Z 17004KT 36/12 A299 RMK A01 T03550121  RH  024%=      5-min Rain = 0
KCH1 140145Z 17004KT 35/12 A299 RMK A01 T03540121  RH  025%=      5-min Rain = 0
KCH1 140146Z 17004KT 35/12 A299 RMK A01 T03540121  RH  025%=      5-min Rain = 0
KCH1 140147Z 17004KT 35/12 A299 RMK A01 T03530121  RH  025%=      5-min Rain = 0
KCH1 140148Z 17004KT 35/12 A299 RMK A01 T03530122  RH  025%=      5-min Rain = 0
KCH1 140149Z 17004KT 35/12 A299 RMK A01 T03520122  RH  025%=      5-min Rain = 0
KCH1 140150Z 17004KT 35/12 A299 RMK A01 T03520122  RH  025%=      5-min Rain = 0
KCH1 140151Z 17004KT 35/12 A299 RMK A01 T03510122  RH  025%=      5-min Rain = 0
KCH1 140152Z 17004KT 35/12 A299 RMK A01 T03500122  RH  025%=      5-min Rain = 0
KCH1 140153Z 17005KT 35/12 A299 RMK A01 T03500122  RH  025%=      5-min Rain = 0
KCH1 140154Z 17004KT 35/12 A299 RMK A01 T03490122  RH  025%=      5-min Rain = 0
KCH1 140155Z 17004KT 35/12 A299 RMK A01 T03490122  RH  025%=      5-min Rain = 0
KCH1 140156Z 17005KT 35/12 A299 RMK A01 T03480122  RH  025%=      5-min Rain = 0
KCH1 140157Z 16005KT 35/12 A299 RMK A01 T03470122  RH  026%=      5-min Rain = 0
KCH1 140158Z 17005KT 35/12 A299 RMK A01 T03470122  RH  026%=      5-min Rain = 0
KCH1 140159Z 17004KT 35/12 A299 RMK A01 T03470122  RH  026%=      5-min Rain = 0
KCH1 140200Z 16004KT 35/12 A299 RMK A01 T03460122  RH  026%=      5-min Rain = 0
KCH1 140201Z 17004KT 35/12 A299 RMK A01 T03460122  RH  026%=      5-min Rain = 0
KCH1 140202Z 17004KT 35/12 A299 RMK A01 T03450122  RH  026%=      5-min Rain = 0
KCH1 140203Z 17004KT 35/12 A2991 RMK A01 T03450122  RH  026%=      5-min Rain = 0
KCH1 140204Z 17004KT 34/12 A2991 RMK A01 T03440122  RH  026%=      5-min Rain = 0
KCH1 140205Z 16004KT 34/12 A2991 RMK A01 T03440122  RH  026%=      5-min Rain = 0
KCH1 140206Z 17004KT 34/12 A2991 RMK A01 T03430122  RH  026%=      5-min Rain = 0
KCH1 140207Z 16004KT 34/12 A2991 RMK A01 T03430123  RH  026%=      5-min Rain = 0
KCH1 140208Z 16004KT 34/12 A2991 RMK A01 T03420123  RH  026%=      5-min Rain = 0
KCH1 140209Z 16005KT 34/12 A2991 RMK A01 T03420123  RH  027%=      5-min Rain = 0
KCH1 140210Z 16004KT 34/12 A2991 RMK A01 T03410123  RH  027%=      5-min Rain = 0
KCH1 140211Z 16004KT 34/12 A2991 RMK A01 T03410123  RH  027%=      5-min Rain = 0
KCH1 140212Z 16004KT 34/12 A2991 RMK A01 T03410123  RH  027%=      5-min Rain = 0
KCH1 140213Z 16004KT 34/12 A2991 RMK A01 T03400123  RH  027%=      5-min Rain = 0
KCH1 140214Z 16004KT 34/12 A2991 RMK A01 T03390123  RH  027%=      5-min Rain = 0
KCH1 140215Z 16003KT 34/12 A2991 RMK A01 T03390124  RH  027%=      5-min Rain = 0
KCH1 140216Z 15004KT 34/12 A2991 RMK A01 T03380123  RH  027%=      5-min Rain = 0
KCH1 140217Z 15004KT 34/12 A2991 RMK A01 T03380124  RH  027%=      5-min Rain = 0
KCH1 140218Z 16004KT 34/12 A2991 RMK A01 T03380124  RH  027%=      5-min Rain = 0
KCH1 140219Z 16004KT 34/12 A2991 RMK A01 T03370124  RH  027%=      5-min Rain = 0
KCH1 140220Z 16004KT 34/12 A2991 RMK A01 T03370124  RH  028%=      5-min Rain = 0
KCH1 140221Z 16004KT 34/12 A2991 RMK A01 T03360124  RH  028%=      5-min Rain = 0
KCH1 140222Z 16004KT 34/12 A2991 RMK A01 T03360124  RH  028%=      5-min Rain = 0
KCH1 140223Z 16005KT 34/12 A2991 RMK A01 T03350124  RH  028%=      5-min Rain = 0
KCH1 140224Z 16005KT 34/12 A2991 RMK A01 T03350124  RH  028%=      5-min Rain = 0
KCH1 140225Z 16004KT 33/12 A2991 RMK A01 T03340124  RH  028%=      5-min Rain = 0
KCH1 140226Z 15004KT 33/13 A2991 RMK A01 T03330125  RH  028%=      5-min Rain = 0
KCH1 140227Z 16004KT 33/13 A2991 RMK A01 T03330125  RH  028%=      5-min Rain = 0
KCH1 140228Z 15005KT 33/12 A2991 RMK A01 T03320124  RH  028%=      5-min Rain = 0
KCH1 140229Z 16005KT 33/12 A2991 RMK A01 T03310124  RH  028%=      5-min Rain = 0
KCH1 140230Z 16005KT 33/13 A2991 RMK A01 T03310125  RH  028%=      5-min Rain = 0
KCH1 140231Z 16004KT 33/13 A2991 RMK A01 T03320125  RH  028%=      5-min Rain = 0
KCH1 140232Z 16005KT 33/13 A2991 RMK A01 T03310125  RH  029%=      5-min Rain = 0
KCH1 140233Z 15004KT 33/13 A2992 RMK A01 T03310125  RH  029%=      5-min Rain = 0
KCH1 140234Z 16005KT 33/13 A2992 RMK A01 T03310125  RH  029%=      5-min Rain = 0
KCH1 140235Z 16005KT 33/12 A2992 RMK A01 T03310124  RH  029%=      5-min Rain = 0
KCH1 140236Z 16004KT 33/13 A2992 RMK A01 T03300125  RH  029%=      5-min Rain = 0
KCH1 140237Z 16005KT 33/13 A2992 RMK A01 T03300125  RH  029%=      5-min Rain = 0
KCH1 140238Z 16005KT 33/13 A2992 RMK A01 T03300125  RH  029%=      5-min Rain = 0
KCH1 140239Z 16004KT 33/13 A2992 RMK A01 T03290125  RH  029%=      5-min Rain = 0
KCH1 140240Z 16004KT 33/13 A2992 RMK A01 T03290125  RH  029%=      5-min Rain = 0
KCH1 140241Z 16005KT 33/13 A2992 RMK A01 T03280125  RH  029%=      5-min Rain = 0
KCH1 140242Z 16004KT 33/13 A2992 RMK A01 T03280125  RH  029%=      5-min Rain = 0
KCH1 140243Z 16004KT 33/13 A2992 RMK A01 T03280125  RH  029%=      5-min Rain = 0
KCH1 140244Z 16004KT 33/13 A2992 RMK A01 T03280125  RH  029%=      5-min Rain = 0
KCH1 140245Z 16004KT 33/13 A2992 RMK A01 T03280125  RH  029%=      5-min Rain = 0
KCH1 140246Z 16004KT 33/13 A2992 RMK A01 T03280125  RH  029%=      5-min Rain = 0
KCH1 140247Z 16004KT 33/13 A2992 RMK A01 T03280125  RH  029%=      5-min Rain = 0
KCH1 140248Z 16004KT 33/13 A2992 RMK A01 T03280125  RH  029%=      5-min Rain = 0
KCH1 140249Z 16004KT 33/13 A2992 RMK A01 T03270125  RH  029%=      5-min Rain = 0
KCH1 140250Z 16005KT 33/13 A2992 RMK A01 T03270125  RH  029%=      5-min Rain = 0
KCH1 140251Z 17005KT 33/13 A2992 RMK A01 T03270125  RH  029%=      5-min Rain = 0
KCH1 140252Z 17005KT 33/13 A2992 RMK A01 T03280125  RH  029%=      5-min Rain = 0
KCH1 140253Z 17005KT 33/13 A2992 RMK A01 T03270125  RH  029%=      5-min Rain = 0
KCH1 140254Z 17005KT 33/13 A2992 RMK A01 T03270125  RH  029%=      5-min Rain = 0
KCH1 140255Z 17005KT 33/13 A2992 RMK A01 T03270125  RH  029%=      5-min Rain = 0
KCH1 140256Z 17004KT 33/13 A2992 RMK A01 T03270125  RH  029%=      5-min Rain = 0
KCH1 140257Z 18004KT 33/13 A2992 RMK A01 T03270125  RH  029%=      5-min Rain = 0
KCH1 140258Z 18004KT 33/13 A2992 RMK A01 T03260125  RH  029%=      5-min Rain = 0
KCH1 140259Z 18004KT 33/13 A2992 RMK A01 T03260126  RH  030%=      5-min Rain = 0
KCH1 140300Z 18004KT 33/13 A2992 RMK A01 T03260126  RH  030%=      5-min Rain = 0
KCH1 140301Z 18004KT 33/13 A2992 RMK A01 T03260126  RH  030%=      5-min Rain = 0
KCH1 140302Z 18004KT 33/13 A2992 RMK A01 T03260126  RH  030%=      5-min Rain = 0
KCH1 140303Z 19004KT 33/13 A2992 RMK A01 T03250125  RH  030%=      5-min Rain = 0
KCH1 140304Z 19005KT 33/13 A2993 RMK A01 T03250126  RH  030%=      5-min Rain = 0
KCH1 140305Z 19005KT 33/13 A2993 RMK A01 T03250126  RH  030%=      5-min Rain = 0
KCH1 140306Z 18005KT 33/13 A2993 RMK A01 T03250126  RH  030%=      5-min Rain = 0
KCH1 140307Z 18005KT 32/13 A2993 RMK A01 T03240126  RH  030%=      5-min Rain = 0
KCH1 140308Z 18006KT 32/13 A2992 RMK A01 T03240126  RH  030%=      5-min Rain = 0
KCH1 140309Z 18005KT 32/13 A2992 RMK A01 T03240126  RH  030%=      5-min Rain = 0
KCH1 140310Z 18006KT 32/13 A2992 RMK A01 T03230126  RH  030%=      5-min Rain = 0
KCH1 140311Z 18006KT 32/13 A2992 RMK A01 T03230126  RH  030%=      5-min Rain = 0
KCH1 140312Z 18006KT 32/13 A2992 RMK A01 T03230127  RH  030%=      5-min Rain = 0
KCH1 140313Z 18006KT 32/13 A2992 RMK A01 T03230126  RH  030%=      5-min Rain = 0
KCH1 140314Z 18006KT 32/13 A2992 RMK A01 T03220127  RH  030%=      5-min Rain = 0
KCH1 140315Z 18006KT 32/13 A2992 RMK A01 T03220126  RH  030%=      5-min Rain = 0
KCH1 140316Z 19007KT 32/13 A2992 RMK A01 T03230127  RH  030%=      5-min Rain = 0
KCH1 140317Z 19006KT 32/13 A2992 RMK A01 T03230127  RH  030%=      5-min Rain = 0
KCH1 140318Z 19006KT 32/13 A2992 RMK A01 T03240127  RH  030%=      5-min Rain = 0
KCH1 140319Z 19006KT 32/13 A2992 RMK A01 T03230127  RH  030%=      5-min Rain = 0
KCH1 140320Z 20007KT 32/13 A2992 RMK A01 T03240127  RH  030%=      5-min Rain = 0
KCH1 140321Z 20006KT 32/13 A2993 RMK A01 T03240127  RH  030%=      5-min Rain = 0
KCH1 140322Z 20006KT 33/13 A2993 RMK A01 T03260127  RH  030%=      5-min Rain = 0
KCH1 140323Z 20006KT 33/13 A2993 RMK A01 T03270127  RH  030%=      5-min Rain = 0
KCH1 140324Z 20006KT 33/13 A2993 RMK A01 T03280127  RH  030%=      5-min Rain = 0
KCH1 140325Z 19006KT 33/13 A2993 RMK A01 T03290128  RH  029%=      5-min Rain = 0
KCH1 140326Z 20006KT 33/13 A2993 RMK A01 T03290127  RH  029%=      5-min Rain = 0
KCH1 140327Z 20005KT 33/13 A2993 RMK A01 T03300127  RH  029%=      5-min Rain = 0
KCH1 140328Z 19005KT 33/13 A2993 RMK A01 T03300127  RH  029%=      5-min Rain = 0
KCH1 140329Z 19006KT 33/13 A2993 RMK A01 T03300127  RH  029%=      5-min Rain = 0
KCH1 140330Z 19006KT 33/13 A2993 RMK A01 T03300127  RH  029%=      5-min Rain = 0
KCH1 140331Z 20006KT 33/13 A2993 RMK A01 T03310128  RH  029%=      5-min Rain = 0
KCH1 140332Z 19004KT 33/13 A2993 RMK A01 T03310128  RH  029%=      5-min Rain = 0
KCH1 140333Z 19005KT 33/13 A2993 RMK A01 T03300128  RH  029%=      5-min Rain = 0
KCH1 140334Z 20005KT 33/13 A2993 RMK A01 T03290128  RH  029%=      5-min Rain = 0
KCH1 140335Z 20005KT 33/13 A2993 RMK A01 T03290128  RH  029%=      5-min Rain = 0
KCH1 140336Z 20005KT 33/13 A2993 RMK A01 T03290128  RH  030%=      5-min Rain = 0
KCH1 140337Z 20005KT 33/13 A2993 RMK A01 T03290128  RH  030%=      5-min Rain = 0
KCH1 140338Z 20005KT 33/13 A2993 RMK A01 T03290128  RH  030%=      5-min Rain = 0
KCH1 140339Z 20005KT 33/13 A2993 RMK A01 T03290128  RH  030%=      5-min Rain = 0
KCH1 140340Z 20005KT 33/13 A2993 RMK A01 T03280128  RH  030%=      5-min Rain = 0
KCH1 140341Z 19006KT 33/13 A2993 RMK A01 T03290128  RH  030%=      5-min Rain = 0
KCH1 140342Z 19005KT 33/13 A2993 RMK A01 T03290128  RH  030%=      5-min Rain = 0
KCH1 140343Z 19005KT 33/13 A2993 RMK A01 T03290129  RH  030%=      5-min Rain = 0
KCH1 140344Z 19005KT 33/13 A2993 RMK A01 T03290129  RH  030%=      5-min Rain = 0
KCH1 140345Z 20005KT 33/13 A2993 RMK A01 T03280129  RH  030%=      5-min Rain = 0
KCH1 140346Z 20006KT 33/13 A2993 RMK A01 T03280129  RH  030%=      5-min Rain = 0
KCH1 140347Z 20007KT 33/13 A2993 RMK A01 T03280129  RH  030%=      5-min Rain = 0
KCH1 140348Z 20006KT 33/13 A2993 RMK A01 T03280129  RH  030%=      5-min Rain = 0
KCH1 140349Z 20006KT 33/13 A2993 RMK A01 T03280128  RH  030%=      5-min Rain = 0
KCH1 140350Z 20005KT 33/13 A2993 RMK A01 T03280129  RH  030%=      5-min Rain = 0
KCH1 140351Z 20006KT 33/13 A2993 RMK A01 T03280129  RH  030%=      5-min Rain = 0
KCH1 140352Z 20005KT 33/13 A2993 RMK A01 T03280129  RH  030%=      5-min Rain = 0
KCH1 140353Z 20006KT 33/13 A2993 RMK A01 T03270129  RH  030%=      5-min Rain = 0
KCH1 140354Z 20006KT 33/13 A2993 RMK A01 T03280129  RH  030%=      5-min Rain = 0
KCH1 140355Z 20005KT 33/13 A2993 RMK A01 T03280129  RH  030%=      5-min Rain = 0
KCH1 140356Z 20006KT 33/13 A2993 RMK A01 T03270129  RH  030%=      5-min Rain = 0
KCH1 140357Z 20006KT 33/13 A2993 RMK A01 T03280129  RH  030%=      5-min Rain = 0
KCH1 140358Z 21006KT 33/13 A2993 RMK A01 T03270130  RH  030%=      5-min Rain = 0
KCH1 140359Z 20006KT 33/13 A2993 RMK A01 T03270129  RH  030%=      5-min Rain = 0
KCH1 140400Z 20007KT 33/13 A2993 RMK A01 T03270129  RH  030%=      5-min Rain = 0
KCH1 140401Z 20007KT 33/13 A2993 RMK A01 T03270129  RH  030%=      5-min Rain = 0
KCH1 140402Z 20007KT 33/13 A2993 RMK A01 T03270129  RH  030%=      5-min Rain = 0
KCH1 140403Z 20006KT 33/13 A2993 RMK A01 T03270129  RH  030%=      5-min Rain = 0
KCH1 140404Z 20007KT 33/13 A2993 RMK A01 T03270129  RH  030%=      5-min Rain = 0
KCH1 140405Z 20007KT 33/13 A2993 RMK A01 T03270129  RH  030%=      5-min Rain = 0
KCH1 140406Z 20007KT 33/13 A2993 RMK A01 T03270129  RH  030%=      5-min Rain = 0
KCH1 140407Z 20007KT 33/13 A2993 RMK A01 T03270130  RH  030%=      5-min Rain = 0
KCH1 140408Z 19006KT 33/13 A2993 RMK A01 T03270129  RH  030%=      5-min Rain = 0
KCH1 140409Z 20006KT 33/13 A2993 RMK A01 T03260130  RH  030%=      5-min Rain = 0
KCH1 140410Z 19006KT 33/13 A2993 RMK A01 T03260129  RH  030%=      5-min Rain = 0
KCH1 140411Z 20005KT 33/13 A2993 RMK A01 T03250129  RH  030%=      5-min Rain = 0
KCH1 140412Z 19006KT 32/13 A2993 RMK A01 T03240129  RH  031%=      5-min Rain = 0
KCH1 140413Z 19006KT 32/13 A2993 RMK A01 T03240130  RH  031%=      5-min Rain = 0
KCH1 140414Z 19005KT 32/13 A2993 RMK A01 T03240130  RH  031%=      5-min Rain = 0
KCH1 140415Z 19006KT 32/13 A2993 RMK A01 T03230130  RH  031%=      5-min Rain = 0
KCH1 140416Z 19006KT 32/13 A2993 RMK A01 T03230130  RH  031%=      5-min Rain = 0
KCH1 140417Z 19005KT 32/13 A2993 RMK A01 T03230130  RH  031%=      5-min Rain = 0
KCH1 140418Z 19004KT 32/13 A2993 RMK A01 T03220130  RH  031%=      5-min Rain = 0
KCH1 140419Z 18004KT 32/13 A2993 RMK A01 T03220130  RH  031%=      5-min Rain = 0
KCH1 140420Z 18004KT 32/13 A2993 RMK A01 T03200129  RH  031%=      5-min Rain = 0
KCH1 140421Z 18003KT 32/13 A2993 RMK A01 T03190130  RH  032%=      5-min Rain = 0
KCH1 140422Z 16003KT 32/13 A2993 RMK A01 T03180130  RH  032%=      5-min Rain = 0
KCH1 140423Z 16002KT 32/13 A2993 RMK A01 T03170130  RH  032%=      5-min Rain = 0
KCH1 140424Z 17003KT 32/13 A2993 RMK A01 T03150130  RH  032%=      5-min Rain = 0
KCH1 140425Z 18003KT 31/13 A2993 RMK A01 T03130129  RH  033%=      5-min Rain = 0
KCH1 140426Z 17003KT 31/13 A2993 RMK A01 T03120129  RH  033%=      5-min Rain = 0
KCH1 140427Z 18003KT 31/13 A2993 RMK A01 T03110129  RH  033%=      5-min Rain = 0
KCH1 140428Z 17003KT 31/13 A2993 RMK A01 T03090129  RH  033%=      5-min Rain = 0
KCH1 140429Z 17003KT 31/13 A2993 RMK A01 T03090130  RH  033%=      5-min Rain = 0
KCH1 140430Z 17004KT 31/13 A2993 RMK A01 T03080129  RH  034%=      5-min Rain = 0
KCH1 140431Z 17004KT 31/13 A2993 RMK A01 T03080130  RH  034%=      5-min Rain = 0
KCH1 140432Z 16004KT 31/13 A2993 RMK A01 T03070130  RH  034%=      5-min Rain = 0
KCH1 140433Z 17004KT 31/13 A2993 RMK A01 T03060129  RH  034%=      5-min Rain = 0
KCH1 140434Z 16004KT 31/13 A2993 RMK A01 T03060129  RH  034%=      5-min Rain = 0
KCH1 140435Z 16004KT 31/13 A2993 RMK A01 T03050130  RH  034%=      5-min Rain = 0
KCH1 140436Z 16003KT 31/13 A2993 RMK A01 T03050129  RH  034%=      5-min Rain = 0
KCH1 140437Z 17004KT 30/13 A2994 RMK A01 T03040129  RH  034%=      5-min Rain = 0
KCH1 140438Z 16004KT 30/13 A2994 RMK A01 T03030129  RH  034%=      5-min Rain = 0
KCH1 140439Z 16003KT 30/13 A2994 RMK A01 T03030130  RH  035%=      5-min Rain = 0
KCH1 140440Z 16003KT 30/13 A2994 RMK A01 T03030129  RH  035%=      5-min Rain = 0
KCH1 140441Z 16003KT 30/13 A2994 RMK A01 T03020129  RH  035%=      5-min Rain = 0
KCH1 140442Z 16002KT 30/13 A2994 RMK A01 T03010129  RH  035%=      5-min Rain = 0
KCH1 140443Z 16003KT 30/13 A2994 RMK A01 T03010129  RH  035%=      5-min Rain = 0
KCH1 140444Z 17003KT 30/13 A2994 RMK A01 T03000129  RH  035%=      5-min Rain = 0
KCH1 140445Z 16003KT 30/13 A2994 RMK A01 T03000129  RH  035%=      5-min Rain = 0
KCH1 140446Z 16003KT 30/13 A2994 RMK A01 T02990129  RH  035%=      5-min Rain = 0
KCH1 140447Z 16003KT 30/13 A2994 RMK A01 T02990129  RH  035%=      5-min Rain = 0
KCH1 140448Z 16004KT 30/13 A2994 RMK A01 T02980129  RH  036%=      5-min Rain = 0
KCH1 140449Z 17004KT 30/13 A2993 RMK A01 T02980129  RH  036%=      5-min Rain = 0
KCH1 140450Z 17003KT 30/13 A2993 RMK A01 T02970129  RH  036%=      5-min Rain = 0
KCH1 140451Z 16003KT 30/13 A2993 RMK A01 T02960129  RH  036%=      5-min Rain = 0
KCH1 140452Z 16003KT 30/13 A2993 RMK A01 T02960129  RH  036%=      5-min Rain = 0
KCH1 140453Z 17003KT 30/13 A2994 RMK A01 T02960129  RH  036%=      5-min Rain = 0
KCH1 140454Z 16003KT 30/13 A2994 RMK A01 T02950129  RH  036%=      5-min Rain = 0
KCH1 140455Z 16003KT 30/13 A2994 RMK A01 T02950129  RH  036%=      5-min Rain = 0
KCH1 140456Z 17003KT 30/13 A2994 RMK A01 T02950130  RH  036%=      5-min Rain = 0
KCH1 140457Z 17003KT 29/13 A2994 RMK A01 T02940130  RH  036%=      5-min Rain = 0
KCH1 140458Z 17003KT 29/13 A2994 RMK A01 T02940130  RH  036%=      5-min Rain = 0
KCH1 140459Z 17003KT 29/13 A2994 RMK A01 T02930130  RH  037%=      5-min Rain = 0

Page generated in 0.1192 seconds.